Observation data for Colorado City on 01/18/2019      Previous  Date  Next       Current Mesonet Observations  Soil Data  Daily Summary Page  Observations in Plain Language
KCO2 180600Z 17007KT 08/04 A3006 RMK A01 T00830037  RH  073%=      5-min Rain = 0
KCO2 180601Z 17007KT 08/04 A3006 RMK A01 T00830036  RH  072%=      5-min Rain = 0
KCO2 180602Z 17007KT 08/04 A3006 RMK A01 T00830037  RH  072%=      5-min Rain = 0
KCO2 180603Z 18007KT 08/04 A3006 RMK A01 T00840037  RH  072%=      5-min Rain = 0
KCO2 180604Z 17007KT 08/04 A3005 RMK A01 T00840037  RH  072%=      5-min Rain = 0
KCO2 180605Z 17007KT 09/04 A3005 RMK A01 T00850037  RH  072%=      5-min Rain = 0
KCO2 180606Z 17007KT 09/04 A3005 RMK A01 T00850037  RH  072%=      5-min Rain = 0
KCO2 180607Z 17007KT 09/04 A3005 RMK A01 T00850037  RH  072%=      5-min Rain = 0
KCO2 180608Z 17007KT 09/04 A3005 RMK A01 T00860037  RH  072%=      5-min Rain = 0
KCO2 180609Z 17007KT 09/04 A3005 RMK A01 T00860037  RH  071%=      5-min Rain = 0
KCO2 180610Z 17007KT 09/04 A3005 RMK A01 T00860037  RH  071%=      5-min Rain = 0
KCO2 180611Z 17007KT 09/04 A3005 RMK A01 T00860037  RH  071%=      5-min Rain = 0
KCO2 180612Z 17008KT 09/04 A3005 RMK A01 T00860037  RH  071%=      5-min Rain = 0
KCO2 180613Z 17008KT 09/04 A3005 RMK A01 T00860037  RH  071%=      5-min Rain = 0
KCO2 180614Z 17008KT 09/04 A3005 RMK A01 T00860038  RH  071%=      5-min Rain = 0
KCO2 180615Z 17008KT 09/04 A3005 RMK A01 T00860037  RH  072%=      5-min Rain = 0
KCO2 180616Z 17008KT 09/04 A3005 RMK A01 T00860037  RH  072%=      5-min Rain = 0
KCO2 180617Z 17008KT 09/04 A3005 RMK A01 T00850037  RH  072%=      5-min Rain = 0
KCO2 180618Z 17008KT 09/04 A3005 RMK A01 T00850037  RH  072%=      5-min Rain = 0
KCO2 180619Z 17008KT 09/04 A3005 RMK A01 T00850037  RH  072%=      5-min Rain = 0
KCO2 180620Z 17008KT 08/04 A3005 RMK A01 T00840037  RH  072%=      5-min Rain = 0
KCO2 180621Z 17008KT 08/04 A3005 RMK A01 T00840037  RH  072%=      5-min Rain = 0
KCO2 180622Z 17008KT 08/04 A3005 RMK A01 T00840037  RH  072%=      5-min Rain = 0
KCO2 180623Z 18008KT 08/04 A3005 RMK A01 T00840037  RH  072%=      5-min Rain = 0
KCO2 180624Z 18009KT 08/04 A3005 RMK A01 T00840037  RH  072%=      5-min Rain = 0
KCO2 180625Z 18009KT 09/04 A3005 RMK A01 T00850037  RH  072%=      5-min Rain = 0
KCO2 180626Z 17009KT 09/04 A3005 RMK A01 T00860038  RH  072%=      5-min Rain = 0
KCO2 180627Z 17009KT 09/04 A3005 RMK A01 T00870038  RH  071%=      5-min Rain = 0
KCO2 180628Z 17009KT 09/04 A3005 RMK A01 T00870038  RH  071%=      5-min Rain = 0
KCO2 180629Z 17009KT 09/04 A3005 RMK A01 T00870038  RH  071%=      5-min Rain = 0
KCO2 180630Z 17009KT 09/04 A3005 RMK A01 T00880038  RH  071%=      5-min Rain = 0
KCO2 180631Z 17009KT 09/04 A3005 RMK A01 T00880037  RH  071%=      5-min Rain = 0
KCO2 180632Z 17009KT 09/04 A3005 RMK A01 T00880038  RH  071%=      5-min Rain = 0
KCO2 180633Z 17009KT 09/04 A3005 RMK A01 T00880038  RH  071%=      5-min Rain = 0
KCO2 180634Z 16008KT 09/04 A3005 RMK A01 T00880038  RH  071%=      5-min Rain = 0
KCO2 180635Z 16008KT 09/04 A3005 RMK A01 T00880037  RH  071%=      5-min Rain = 0
KCO2 180636Z 16008KT 09/04 A3005 RMK A01 T00880038  RH  071%=      5-min Rain = 0
KCO2 180637Z 16007KT 09/04 A3005 RMK A01 T00870037  RH  071%=      5-min Rain = 0
KCO2 180638Z 16008KT 09/04 A3005 RMK A01 T00870037  RH  071%=      5-min Rain = 0
KCO2 180639Z 16008KT 09/04 A3005 RMK A01 T00860037  RH  071%=      5-min Rain = 0
KCO2 180640Z 16007KT 09/04 A3005 RMK A01 T00860037  RH  071%=      5-min Rain = 0
KCO2 180641Z 16008KT 09/04 A3005 RMK A01 T00860037  RH  071%=      5-min Rain = 0
KCO2 180642Z 16007KT 09/04 A3005 RMK A01 T00860037  RH  071%=      5-min Rain = 0
KCO2 180643Z 16007KT 09/04 A3005 RMK A01 T00860037  RH  071%=      5-min Rain = 0
KCO2 180644Z 16007KT 09/04 A3005 RMK A01 T00850037  RH  071%=      5-min Rain = 0
KCO2 180645Z 16007KT 09/04 A3005 RMK A01 T00850037  RH  072%=      5-min Rain = 0
KCO2 180646Z 16007KT 08/04 A3005 RMK A01 T00840037  RH  072%=      5-min Rain = 0
KCO2 180647Z 17007KT 08/04 A3005 RMK A01 T00840036  RH  072%=      5-min Rain = 0
KCO2 180648Z 16007KT 08/04 A3005 RMK A01 T00830036  RH  072%=      5-min Rain = 0
KCO2 180649Z 16007KT 08/04 A3005 RMK A01 T00830036  RH  072%=      5-min Rain = 0
KCO2 180650Z 16007KT 08/04 A3005 RMK A01 T00830036  RH  073%=      5-min Rain = 0
KCO2 180651Z 16008KT 08/04 A3005 RMK A01 T00820036  RH  073%=      5-min Rain = 0
KCO2 180652Z 16007KT 08/04 A3005 RMK A01 T00820036  RH  073%=      5-min Rain = 0
KCO2 180653Z 16007KT 08/04 A3004 RMK A01 T00820036  RH  073%=      5-min Rain = 0
KCO2 180654Z 16007KT 08/04 A3004 RMK A01 T00820036  RH  073%=      5-min Rain = 0
KCO2 180655Z 16007KT 08/04 A3004 RMK A01 T00820037  RH  073%=      5-min Rain = 0
KCO2 180656Z 16007KT 08/04 A3004 RMK A01 T00820036  RH  073%=      5-min Rain = 0
KCO2 180657Z 16007KT 08/04 A3004 RMK A01 T00820037  RH  073%=      5-min Rain = 0
KCO2 180658Z 16007KT 08/04 A3004 RMK A01 T00820036  RH  073%=      5-min Rain = 0
KCO2 180659Z 16007KT 08/04 A3004 RMK A01 T00820036  RH  073%=      5-min Rain = 0
KCO2 180700Z 17007KT 08/04 A3004 RMK A01 T00820036  RH  073%=      5-min Rain = 0
KCO2 180701Z 17007KT 08/04 A3004 RMK A01 T00820037  RH  073%=      5-min Rain = 0
KCO2 180702Z 17008KT 08/04 A3004 RMK A01 T00820037  RH  073%=      5-min Rain = 0
KCO2 180703Z 16008KT 08/04 A3004 RMK A01 T00820037  RH  073%=      5-min Rain = 0
KCO2 180704Z 16008KT 08/04 A3004 RMK A01 T00820037  RH  073%=      5-min Rain = 0
KCO2 180705Z 16008KT 08/04 A3004 RMK A01 T00820037  RH  073%=      5-min Rain = 0
KCO2 180706Z 16008KT 08/04 A3004 RMK A01 T00820036  RH  073%=      5-min Rain = 0
KCO2 180707Z 16008KT 08/04 A3004 RMK A01 T00820037  RH  073%=      5-min Rain = 0
KCO2 180708Z 16008KT 08/04 A3004 RMK A01 T00820036  RH  073%=      5-min Rain = 0
KCO2 180709Z 16008KT 08/04 A3004 RMK A01 T00820036  RH  073%=      5-min Rain = 0
KCO2 180710Z 17008KT 08/04 A3004 RMK A01 T00820036  RH  073%=      5-min Rain = 0
KCO2 180711Z 17008KT 08/04 A3003 RMK A01 T00820037  RH  073%=      5-min Rain = 0
KCO2 180712Z 17008KT 08/04 A3003 RMK A01 T00830037  RH  073%=      5-min Rain = 0
KCO2 180713Z 16009KT 08/04 A3003 RMK A01 T00830037  RH  073%=      5-min Rain = 0
KCO2 180714Z 17009KT 08/04 A3003 RMK A01 T00830036  RH  073%=      5-min Rain = 0
KCO2 180715Z 17009KT 08/04 A3003 RMK A01 T00830036  RH  073%=      5-min Rain = 0
KCO2 180716Z 17008KT 08/04 A3003 RMK A01 T00830036  RH  073%=      5-min Rain = 0
KCO2 180717Z 17009KT 08/04 A3003 RMK A01 T00830036  RH  072%=      5-min Rain = 0
KCO2 180718Z 16009KT 08/04 A3003 RMK A01 T00830036  RH  072%=      5-min Rain = 0
KCO2 180719Z 17009KT 08/04 A3003 RMK A01 T00830036  RH  072%=      5-min Rain = 0
KCO2 180720Z 17009KT 08/04 A3003 RMK A01 T00840036  RH  072%=      5-min Rain = 0
KCO2 180721Z 17009KT 08/04 A3003 RMK A01 T00840037  RH  072%=      5-min Rain = 0
KCO2 180722Z 17009KT 08/04 A3003 RMK A01 T00840037  RH  072%=      5-min Rain = 0
KCO2 180723Z 17009KT 08/04 A3003 RMK A01 T00840037  RH  072%=      5-min Rain = 0
KCO2 180724Z 16009KT 08/04 A3003 RMK A01 T00840037  RH  072%=      5-min Rain = 0
KCO2 180725Z 17009KT 08/04 A3003 RMK A01 T00840037  RH  072%=      5-min Rain = 0
KCO2 180726Z 16009KT 08/04 A3002 RMK A01 T00840037  RH  072%=      5-min Rain = 0
KCO2 180727Z 16010KT 08/04 A3002 RMK A01 T00830036  RH  072%=      5-min Rain = 0
KCO2 180728Z 16009KT 08/04 A3002 RMK A01 T00830036  RH  073%=      5-min Rain = 0
KCO2 180729Z 16010KT 08/04 A3002 RMK A01 T00830036  RH  073%=      5-min Rain = 0
KCO2 180730Z 16009KT 08/04 A3002 RMK A01 T00830036  RH  073%=      5-min Rain = 0
KCO2 180731Z 16009KT 08/04 A3002 RMK A01 T00820036  RH  073%=      5-min Rain = 0
KCO2 180732Z 16009KT 08/04 A3002 RMK A01 T00820036  RH  073%=      5-min Rain = 0
KCO2 180733Z 16008KT 08/04 A3002 RMK A01 T00820036  RH  073%=      5-min Rain = 0
KCO2 180734Z 16008KT 08/04 A3002 RMK A01 T00820036  RH  073%=      5-min Rain = 0
KCO2 180735Z 16008KT 08/04 A3001 RMK A01 T00810036  RH  073%=      5-min Rain = 0
KCO2 180736Z 16008KT 08/04 A3001 RMK A01 T00800036  RH  073%=      5-min Rain = 0
KCO2 180737Z 16008KT 08/04 A3001 RMK A01 T00800036  RH  074%=      5-min Rain = 0
KCO2 180738Z 16008KT 08/04 A3001 RMK A01 T00790036  RH  074%=      5-min Rain = 0
KCO2 180739Z 15008KT 08/04 A3001 RMK A01 T00790036  RH  074%=      5-min Rain = 0
KCO2 180740Z 15008KT 08/04 A3001 RMK A01 T00780036  RH  074%=      5-min Rain = 0
KCO2 180741Z 15008KT 08/04 A3001 RMK A01 T00790036  RH  074%=      5-min Rain = 0
KCO2 180742Z 15008KT 08/04 A3001 RMK A01 T00790036  RH  074%=      5-min Rain = 0
KCO2 180743Z 15008KT 08/04 A3001 RMK A01 T00790036  RH  074%=      5-min Rain = 0
KCO2 180744Z 15008KT 08/04 A3001 RMK A01 T00790036  RH  074%=      5-min Rain = 0
KCO2 180745Z 15008KT 08/04 A3001 RMK A01 T00800036  RH  074%=      5-min Rain = 0
KCO2 180746Z 15007KT 08/04 A3001 RMK A01 T00800035  RH  074%=      5-min Rain = 0
KCO2 180747Z 15007KT 08/04 A3001 RMK A01 T00800035  RH  074%=      5-min Rain = 0
KCO2 180748Z 15007KT 08/04 A3001 RMK A01 T00800036  RH  073%=      5-min Rain = 0
KCO2 180749Z 15006KT 08/04 A3001 RMK A01 T00810036  RH  073%=      5-min Rain = 0
KCO2 180750Z 15007KT 08/04 A3001 RMK A01 T00810036  RH  073%=      5-min Rain = 0
KCO2 180751Z 15006KT 08/04 A3001 RMK A01 T00810035  RH  073%=      5-min Rain = 0
KCO2 180752Z 15007KT 08/04 A3001 RMK A01 T00810035  RH  073%=      5-min Rain = 0
KCO2 180753Z 15006KT 08/04 A3001 RMK A01 T00820035  RH  073%=      5-min Rain = 0
KCO2 180754Z 15006KT 08/04 A3001 RMK A01 T00820035  RH  072%=      5-min Rain = 0
KCO2 180755Z 15006KT 08/04 A3001 RMK A01 T00820035  RH  073%=      5-min Rain = 0
KCO2 180756Z 15006KT 08/04 A3001 RMK A01 T00810035  RH  073%=      5-min Rain = 0
KCO2 180757Z 15006KT 08/04 A3001 RMK A01 T00810035  RH  073%=      5-min Rain = 0
KCO2 180758Z 15006KT 08/04 A3001 RMK A01 T00810035  RH  073%=      5-min Rain = 0
KCO2 180759Z 14005KT 08/04 A3001 RMK A01 T00810035  RH  073%=      5-min Rain = 0
KCO2 180800Z 14006KT 08/04 A3001 RMK A01 T00820035  RH  072%=      5-min Rain = 0
KCO2 180801Z 14007KT 08/03 A3001 RMK A01 T00820034  RH  072%=      5-min Rain = 0
KCO2 180802Z 14007KT 08/03 A3001 RMK A01 T00820034  RH  072%=      5-min Rain = 0
KCO2 180803Z 15007KT 08/03 A3001 RMK A01 T00820034  RH  072%=      5-min Rain = 0
KCO2 180804Z 15006KT 08/03 A3001 RMK A01 T00810034  RH  072%=      5-min Rain = 0
KCO2 180805Z 15006KT 08/03 A3001 RMK A01 T00810034  RH  072%=      5-min Rain = 0
KCO2 180806Z 14007KT 08/04 A3001 RMK A01 T00820035  RH  072%=      5-min Rain = 0
KCO2 180807Z 15007KT 08/04 A3001 RMK A01 T00820035  RH  072%=      5-min Rain = 0
KCO2 180808Z 15007KT 08/04 A3001 RMK A01 T00820035  RH  072%=      5-min Rain = 0
KCO2 180809Z 15008KT 08/03 A3001 RMK A01 T00820034  RH  072%=      5-min Rain = 0
KCO2 180810Z 15007KT 08/04 A3001 RMK A01 T00830035  RH  072%=      5-min Rain = 0
KCO2 180811Z 14008KT 08/03 A3001 RMK A01 T00830034  RH  071%=      5-min Rain = 0
KCO2 180812Z 14008KT 09/04 A3001 RMK A01 T00850035  RH  071%=      5-min Rain = 0
KCO2 180813Z 15007KT 09/04 A3001 RMK A01 T00850035  RH  071%=      5-min Rain = 0
KCO2 180814Z 15007KT 09/04 A3001 RMK A01 T00860035  RH  070%=      5-min Rain = 0
KCO2 180815Z 14006KT 09/04 A3001 RMK A01 T00860035  RH  070%=      5-min Rain = 0
KCO2 180816Z 15007KT 09/04 A3001 RMK A01 T00860035  RH  070%=      5-min Rain = 0
KCO2 180817Z 15006KT 09/03 A3001 RMK A01 T00860034  RH  070%=      5-min Rain = 0
KCO2 180818Z 15007KT 09/04 A30 RMK A01 T00860035  RH  070%=      5-min Rain = 0
KCO2 180819Z 15007KT 09/03 A30 RMK A01 T00870034  RH  070%=      5-min Rain = 0
KCO2 180820Z 14007KT 09/03 A30 RMK A01 T00870034  RH  069%=      5-min Rain = 0
KCO2 180821Z 15007KT 09/03 A30 RMK A01 T00870034  RH  069%=      5-min Rain = 0
KCO2 180822Z 15007KT 09/03 A30 RMK A01 T00860034  RH  070%=      5-min Rain = 0
KCO2 180823Z 15007KT 09/03 A30 RMK A01 T00860034  RH  070%=      5-min Rain = 0
KCO2 180824Z 15007KT 09/03 A30 RMK A01 T00860034  RH  070%=      5-min Rain = 0
KCO2 180825Z 15008KT 09/03 A30 RMK A01 T00850034  RH  070%=      5-min Rain = 0
KCO2 180826Z 15008KT 09/03 A30 RMK A01 T00860034  RH  070%=      5-min Rain = 0
KCO2 180827Z 15008KT 09/03 A30 RMK A01 T00860034  RH  070%=      5-min Rain = 0
KCO2 180828Z 15007KT 09/04 A30 RMK A01 T00870035  RH  070%=      5-min Rain = 0
KCO2 180829Z 15007KT 09/03 A30 RMK A01 T00870034  RH  070%=      5-min Rain = 0
KCO2 180830Z 15007KT 09/03 A30 RMK A01 T00860034  RH  070%=      5-min Rain = 0
KCO2 180831Z 15008KT 09/04 A30 RMK A01 T00860035  RH  070%=      5-min Rain = 0
KCO2 180832Z 15007KT 09/04 A30 RMK A01 T00860035  RH  070%=      5-min Rain = 0
KCO2 180833Z 15007KT 09/03 A30 RMK A01 T00860034  RH  070%=      5-min Rain = 0
KCO2 180834Z 15007KT 09/03 A30 RMK A01 T00860034  RH  070%=      5-min Rain = 0
KCO2 180835Z 15008KT 09/03 A30 RMK A01 T00860034  RH  070%=      5-min Rain = 0
KCO2 180836Z 15007KT 09/03 A30 RMK A01 T00860034  RH  070%=      5-min Rain = 0
KCO2 180837Z 15007KT 09/03 A30 RMK A01 T00860034  RH  070%=      5-min Rain = 0
KCO2 180838Z 15008KT 09/03 A30 RMK A01 T00860034  RH  070%=      5-min Rain = 0
KCO2 180839Z 15008KT 09/03 A30 RMK A01 T00850034  RH  070%=      5-min Rain = 0
KCO2 180840Z 16009KT 09/03 A30 RMK A01 T00850034  RH  070%=      5-min Rain = 0
KCO2 180841Z 16008KT 08/03 A30 RMK A01 T00840034  RH  071%=      5-min Rain = 0
KCO2 180842Z 16008KT 09/04 A30 RMK A01 T00860035  RH  070%=      5-min Rain = 0
KCO2 180843Z 16008KT 09/04 A30 RMK A01 T00870035  RH  070%=      5-min Rain = 0
KCO2 180844Z 17007KT 09/04 A30 RMK A01 T00880035  RH  069%=      5-min Rain = 0
KCO2 180845Z 16007KT 09/04 A30 RMK A01 T00900035  RH  069%=      5-min Rain = 0
KCO2 180846Z 16008KT 09/04 A30 RMK A01 T00910035  RH  068%=      5-min Rain = 0
KCO2 180847Z 16007KT 09/04 A30 RMK A01 T00910035  RH  068%=      5-min Rain = 0
KCO2 180848Z 17008KT 09/04 A30 RMK A01 T00920035  RH  068%=      5-min Rain = 0
KCO2 180849Z 17006KT 09/04 A30 RMK A01 T00930035  RH  067%=      5-min Rain = 0
KCO2 180850Z 17007KT 09/04 A30 RMK A01 T00930035  RH  067%=      5-min Rain = 0
KCO2 180851Z 17006KT 09/04 A30 RMK A01 T00930035  RH  067%=      5-min Rain = 0
KCO2 180852Z 17008KT 09/04 A30 RMK A01 T00930035  RH  067%=      5-min Rain = 0
KCO2 180853Z 17009KT 09/04 A30 RMK A01 T00930035  RH  067%=      5-min Rain = 0
KCO2 180854Z 17009KT 10/04 A30 RMK A01 T00950036  RH  067%=      5-min Rain = 0
KCO2 180855Z 16007KT 10/04 A30 RMK A01 T00960035  RH  066%=      5-min Rain = 0
KCO2 180856Z 16009KT 10/04 A30 RMK A01 T00960035  RH  066%=      5-min Rain = 0
KCO2 180857Z 16008KT 10/04 A30 RMK A01 T00960035  RH  066%=      5-min Rain = 0
KCO2 180858Z 16008KT 10/04 A30 RMK A01 T00960035  RH  066%=      5-min Rain = 0
KCO2 180859Z 16007KT 10/04 A30 RMK A01 T00950035  RH  066%=      5-min Rain = 0
KCO2 180900Z 16007KT 09/04 A30 RMK A01 T00930035  RH  067%=      5-min Rain = 0
KCO2 180901Z 16008KT 09/04 A30 RMK A01 T00930035  RH  067%=      5-min Rain = 0
KCO2 180902Z 15007KT 09/04 A2999 RMK A01 T00920035  RH  067%=      5-min Rain = 0
KCO2 180903Z 15007KT 09/04 A2999 RMK A01 T00920035  RH  068%=      5-min Rain = 0
KCO2 180904Z 15008KT 09/04 A2999 RMK A01 T00910035  RH  068%=      5-min Rain = 0
KCO2 180905Z 15008KT 09/04 A2999 RMK A01 T00910035  RH  068%=      5-min Rain = 0
KCO2 180906Z 15007KT 09/04 A2999 RMK A01 T00910035  RH  068%=      5-min Rain = 0
KCO2 180907Z 15007KT 09/04 A2999 RMK A01 T00900035  RH  069%=      5-min Rain = 0
KCO2 180908Z 14007KT 09/04 A2999 RMK A01 T00890035  RH  069%=      5-min Rain = 0
KCO2 180909Z 15007KT 09/04 A2999 RMK A01 T00880035  RH  069%=      5-min Rain = 0
KCO2 180910Z 15007KT 09/04 A2999 RMK A01 T00880035  RH  069%=      5-min Rain = 0
KCO2 180911Z 15007KT 09/04 A2999 RMK A01 T00880035  RH  069%=      5-min Rain = 0
KCO2 180912Z 14007KT 09/04 A2999 RMK A01 T00880035  RH  069%=      5-min Rain = 0
KCO2 180913Z 14007KT 09/04 A2999 RMK A01 T00880035  RH  069%=      5-min Rain = 0
KCO2 180914Z 14007KT 09/04 A2999 RMK A01 T00870035  RH  069%=      5-min Rain = 0
KCO2 180915Z 14007KT 09/03 A2999 RMK A01 T00860034  RH  070%=      5-min Rain = 0
KCO2 180916Z 14007KT 09/03 A2999 RMK A01 T00850034  RH  070%=      5-min Rain = 0
KCO2 180917Z 14007KT 08/03 A2999 RMK A01 T00840034  RH  071%=      5-min Rain = 0
KCO2 180918Z 14007KT 08/03 A2999 RMK A01 T00840034  RH  071%=      5-min Rain = 0
KCO2 180919Z 14008KT 08/03 A2999 RMK A01 T00840034  RH  071%=      5-min Rain = 0
KCO2 180920Z 15008KT 08/03 A2999 RMK A01 T00840034  RH  071%=      5-min Rain = 0
KCO2 180921Z 15007KT 08/03 A2999 RMK A01 T00840034  RH  071%=      5-min Rain = 0
KCO2 180922Z 15007KT 08/03 A2999 RMK A01 T00840034  RH  071%=      5-min Rain = 0
KCO2 180923Z 14007KT 08/03 A2999 RMK A01 T00830034  RH  071%=      5-min Rain = 0
KCO2 180924Z 15007KT 08/03 A2999 RMK A01 T00830034  RH  071%=      5-min Rain = 0
KCO2 180925Z 15007KT 08/03 A2999 RMK A01 T00820034  RH  072%=      5-min Rain = 0
KCO2 180926Z 15007KT 08/03 A2999 RMK A01 T00820034  RH  072%=      5-min Rain = 0
KCO2 180927Z 15007KT 08/03 A2999 RMK A01 T00810034  RH  072%=      5-min Rain = 0
KCO2 180928Z 15007KT 08/03 A2999 RMK A01 T00810034  RH  072%=      5-min Rain = 0
KCO2 180929Z 15006KT 08/04 A2999 RMK A01 T00820035  RH  072%=      5-min Rain = 0
KCO2 180930Z 15006KT 08/03 A2999 RMK A01 T00820034  RH  072%=      5-min Rain = 0
KCO2 180931Z 14006KT 08/03 A2999 RMK A01 T00820034  RH  072%=      5-min Rain = 0
KCO2 180932Z 15006KT 08/03 A2999 RMK A01 T00820034  RH  072%=      5-min Rain = 0
KCO2 180933Z 15006KT 08/03 A2999 RMK A01 T00820034  RH  072%=      5-min Rain = 0
KCO2 180934Z 14005KT 08/03 A2999 RMK A01 T00820034  RH  072%=      5-min Rain = 0
KCO2 180935Z 14006KT 08/03 A2999 RMK A01 T00820034  RH  072%=      5-min Rain = 0
KCO2 180936Z 15006KT 08/03 A2999 RMK A01 T00820034  RH  072%=      5-min Rain = 0
KCO2 180937Z 14005KT 08/03 A2999 RMK A01 T00820034  RH  072%=      5-min Rain = 0
KCO2 180938Z 14005KT 08/03 A2999 RMK A01 T00810034  RH  072%=      5-min Rain = 0
KCO2 180939Z 14005KT 08/03 A2998 RMK A01 T00810034  RH  072%=      5-min Rain = 0
KCO2 180940Z 14005KT 08/03 A2998 RMK A01 T00810034  RH  072%=      5-min Rain = 0
KCO2 180941Z 14005KT 08/03 A2998 RMK A01 T00810034  RH  072%=      5-min Rain = 0
KCO2 180942Z 14005KT 08/03 A2998 RMK A01 T00810034  RH  072%=      5-min Rain = 0
KCO2 180943Z 15005KT 08/03 A2998 RMK A01 T00810033  RH  072%=      5-min Rain = 0
KCO2 180944Z 15005KT 08/03 A2998 RMK A01 T00810034  RH  072%=      5-min Rain = 0
KCO2 180945Z 15005KT 08/03 A2998 RMK A01 T00810034  RH  072%=      5-min Rain = 0
KCO2 180946Z 15005KT 08/03 A2998 RMK A01 T00810033  RH  072%=      5-min Rain = 0
KCO2 180947Z 15006KT 08/03 A2999 RMK A01 T00810034  RH  072%=      5-min Rain = 0
KCO2 180948Z 16006KT 08/03 A2998 RMK A01 T00800033  RH  072%=      5-min Rain = 0
KCO2 180949Z 16006KT 08/03 A2998 RMK A01 T00800033  RH  072%=      5-min Rain = 0
KCO2 180950Z 16006KT 08/03 A2998 RMK A01 T00800033  RH  072%=      5-min Rain = 0
KCO2 180951Z 16006KT 08/03 A2998 RMK A01 T00790033  RH  073%=      5-min Rain = 0
KCO2 180952Z 16007KT 08/03 A2998 RMK A01 T00780033  RH  073%=      5-min Rain = 0
KCO2 180953Z 16007KT 08/03 A2998 RMK A01 T00780033  RH  073%=      5-min Rain = 0
KCO2 180954Z 16008KT 08/03 A2998 RMK A01 T00780034  RH  074%=      5-min Rain = 0
KCO2 180955Z 16007KT 08/03 A2998 RMK A01 T00790034  RH  074%=      5-min Rain = 0
KCO2 180956Z 16007KT 08/04 A2998 RMK A01 T00790035  RH  073%=      5-min Rain = 0
KCO2 180957Z 15007KT 08/03 A2998 RMK A01 T00790034  RH  073%=      5-min Rain = 0
KCO2 180958Z 16008KT 08/04 A2998 RMK A01 T00790035  RH  073%=      5-min Rain = 0
KCO2 180959Z 16008KT 08/04 A2997 RMK A01 T00790035  RH  073%=      5-min Rain = 0
KCO2 181000Z 16008KT 08/04 A2997 RMK A01 T00790035  RH  073%=      5-min Rain = 0
KCO2 181001Z 16008KT 08/04 A2997 RMK A01 T00790035  RH  073%=      5-min Rain = 0
KCO2 181002Z 16007KT 08/04 A2997 RMK A01 T00800035  RH  073%=      5-min Rain = 0
KCO2 181003Z 15007KT 08/04 A2998 RMK A01 T00800035  RH  074%=      5-min Rain = 0
KCO2 181004Z 15007KT 08/04 A2997 RMK A01 T00790035  RH  074%=      5-min Rain = 0
KCO2 181005Z 15007KT 08/04 A2997 RMK A01 T00790035  RH  074%=      5-min Rain = 0
KCO2 181006Z 15007KT 08/04 A2997 RMK A01 T00780035  RH  074%=      5-min Rain = 0
KCO2 181007Z 15007KT 08/03 A2997 RMK A01 T00780034  RH  074%=      5-min Rain = 0
KCO2 181008Z 15007KT 08/03 A2997 RMK A01 T00780034  RH  074%=      5-min Rain = 0
KCO2 181009Z 15007KT 08/03 A2997 RMK A01 T00760034  RH  074%=      5-min Rain = 0
KCO2 181010Z 15007KT 08/03 A2997 RMK A01 T00760033  RH  075%=      5-min Rain = 0
KCO2 181011Z 15007KT 08/03 A2997 RMK A01 T00750033  RH  075%=      5-min Rain = 0
KCO2 181012Z 15006KT 07/03 A2997 RMK A01 T00740033  RH  075%=      5-min Rain = 0
KCO2 181013Z 15006KT 07/03 A2997 RMK A01 T00730033  RH  075%=      5-min Rain = 0
KCO2 181014Z 15006KT 07/03 A2997 RMK A01 T00730033  RH  076%=      5-min Rain = 0
KCO2 181015Z 15006KT 07/03 A2997 RMK A01 T00720032  RH  076%=      5-min Rain = 0
KCO2 181016Z 15006KT 07/03 A2997 RMK A01 T00710032  RH  076%=      5-min Rain = 0
KCO2 181017Z 15006KT 07/03 A2997 RMK A01 T00700031  RH  076%=      5-min Rain = 0
KCO2 181018Z 15006KT 07/03 A2997 RMK A01 T00690031  RH  077%=      5-min Rain = 0
KCO2 181019Z 15006KT 07/03 A2997 RMK A01 T00680031  RH  077%=      5-min Rain = 0
KCO2 181020Z 15006KT 07/03 A2997 RMK A01 T00670031  RH  077%=      5-min Rain = 0
KCO2 181021Z 15006KT 07/03 A2997 RMK A01 T00670031  RH  078%=      5-min Rain = 0
KCO2 181022Z 15006KT 07/03 A2997 RMK A01 T00670031  RH  078%=      5-min Rain = 0
KCO2 181023Z 15006KT 07/03 A2997 RMK A01 T00670031  RH  078%=      5-min Rain = 0
KCO2 181024Z 15006KT 07/03 A2997 RMK A01 T00670031  RH  078%=      5-min Rain = 0
KCO2 181025Z 15007KT 07/03 A2997 RMK A01 T00670031  RH  078%=      5-min Rain = 0
KCO2 181026Z 15007KT 07/03 A2996 RMK A01 T00670031  RH  078%=      5-min Rain = 0
KCO2 181027Z 15007KT 07/03 A2996 RMK A01 T00660031  RH  078%=      5-min Rain = 0
KCO2 181028Z 14007KT 07/03 A2996 RMK A01 T00660031  RH  078%=      5-min Rain = 0
KCO2 181029Z 15007KT 07/03 A2996 RMK A01 T00650031  RH  079%=      5-min Rain = 0
KCO2 181030Z 15007KT 07/03 A2996 RMK A01 T00650031  RH  079%=      5-min Rain = 0
KCO2 181031Z 15006KT 07/03 A2996 RMK A01 T00650031  RH  079%=      5-min Rain = 0
KCO2 181032Z 14006KT 07/03 A2996 RMK A01 T00650032  RH  079%=      5-min Rain = 0
KCO2 181033Z 14007KT 07/03 A2996 RMK A01 T00650032  RH  079%=      5-min Rain = 0
KCO2 181034Z 14007KT 07/03 A2996 RMK A01 T00650032  RH  079%=      5-min Rain = 0
KCO2 181035Z 14007KT 07/03 A2996 RMK A01 T00650032  RH  079%=      5-min Rain = 0
KCO2 181036Z 14006KT 07/03 A2995 RMK A01 T00650032  RH  079%=      5-min Rain = 0
KCO2 181037Z 14006KT 07/03 A2995 RMK A01 T00650032  RH  079%=      5-min Rain = 0
KCO2 181038Z 14006KT 07/03 A2995 RMK A01 T00660033  RH  079%=      5-min Rain = 0
KCO2 181039Z 14006KT 07/03 A2995 RMK A01 T00660033  RH  079%=      5-min Rain = 0
KCO2 181040Z 14006KT 07/03 A2995 RMK A01 T00660033  RH  080%=      5-min Rain = 0
KCO2 181041Z 14007KT 07/03 A2995 RMK A01 T00660033  RH  079%=      5-min Rain = 0
KCO2 181042Z 14007KT 07/03 A2995 RMK A01 T00660033  RH  079%=      5-min Rain = 0
KCO2 181043Z 14007KT 07/03 A2995 RMK A01 T00650033  RH  080%=      5-min Rain = 0
KCO2 181044Z 14007KT 06/03 A2995 RMK A01 T00640032  RH  080%=      5-min Rain = 0
KCO2 181045Z 14007KT 06/03 A2995 RMK A01 T00640032  RH  080%=      5-min Rain = 0
KCO2 181046Z 14008KT 06/03 A2995 RMK A01 T00640032  RH  080%=      5-min Rain = 0
KCO2 181047Z 14007KT 06/03 A2994 RMK A01 T00640033  RH  080%=      5-min Rain = 0
KCO2 181048Z 14007KT 06/03 A2994 RMK A01 T00630032  RH  081%=      5-min Rain = 0
KCO2 181049Z 14007KT 06/03 A2994 RMK A01 T00630033  RH  081%=      5-min Rain = 0
KCO2 181050Z 14006KT 06/03 A2994 RMK A01 T00630033  RH  081%=      5-min Rain = 0
KCO2 181051Z 14006KT 06/03 A2994 RMK A01 T00630032  RH  081%=      5-min Rain = 0
KCO2 181052Z 14006KT 06/03 A2994 RMK A01 T00630033  RH  081%=      5-min Rain = 0
KCO2 181053Z 14006KT 06/03 A2994 RMK A01 T00630032  RH  081%=      5-min Rain = 0
KCO2 181054Z 13005KT 06/03 A2994 RMK A01 T00640033  RH  081%=      5-min Rain = 0
KCO2 181055Z 14005KT 06/03 A2994 RMK A01 T00640033  RH  081%=      5-min Rain = 0
KCO2 181056Z 14005KT 06/03 A2994 RMK A01 T00640033  RH  081%=      5-min Rain = 0
KCO2 181057Z 13005KT 06/03 A2994 RMK A01 T00640033  RH  081%=      5-min Rain = 0
KCO2 181058Z 13005KT 06/03 A2994 RMK A01 T00640033  RH  081%=      5-min Rain = 0
KCO2 181059Z 14005KT 06/03 A2994 RMK A01 T00640033  RH  081%=      5-min Rain = 0
KCO2 181100Z 14005KT 06/03 A2994 RMK A01 T00640032  RH  080%=      5-min Rain = 0
KCO2 181101Z 14006KT 06/03 A2994 RMK A01 T00640032  RH  080%=      5-min Rain = 0
KCO2 181102Z 14006KT 06/03 A2994 RMK A01 T00640032  RH  080%=      5-min Rain = 0
KCO2 181103Z 14006KT 06/03 A2994 RMK A01 T00640032  RH  080%=      5-min Rain = 0
KCO2 181104Z 15006KT 06/03 A2994 RMK A01 T00640032  RH  080%=      5-min Rain = 0
KCO2 181105Z 15005KT 07/03 A2994 RMK A01 T00650033  RH  080%=      5-min Rain = 0
KCO2 181106Z 15006KT 07/03 A2994 RMK A01 T00660033  RH  079%=      5-min Rain = 0
KCO2 181107Z 15006KT 07/03 A2994 RMK A01 T00660033  RH  079%=      5-min Rain = 0
KCO2 181108Z 15006KT 07/03 A2994 RMK A01 T00660033  RH  079%=      5-min Rain = 0
KCO2 181109Z 15006KT 07/03 A2994 RMK A01 T00670032  RH  079%=      5-min Rain = 0
KCO2 181110Z 15006KT 07/03 A2994 RMK A01 T00670033  RH  079%=      5-min Rain = 0
KCO2 181111Z 15006KT 07/03 A2994 RMK A01 T00670033  RH  079%=      5-min Rain = 0
KCO2 181112Z 15006KT 07/03 A2994 RMK A01 T00670033  RH  079%=      5-min Rain = 0
KCO2 181113Z 15006KT 07/03 A2994 RMK A01 T00670033  RH  079%=      5-min Rain = 0
KCO2 181114Z 15006KT 07/03 A2994 RMK A01 T00680034  RH  079%=      5-min Rain = 0
KCO2 181115Z 15006KT 07/03 A2994 RMK A01 T00690034  RH  078%=      5-min Rain = 0
KCO2 181116Z 14005KT 07/03 A2993 RMK A01 T00690033  RH  078%=      5-min Rain = 0
KCO2 181117Z 14006KT 07/03 A2993 RMK A01 T00690034  RH  078%=      5-min Rain = 0
KCO2 181118Z 14005KT 07/03 A2993 RMK A01 T00690033  RH  078%=      5-min Rain = 0
KCO2 181119Z 15006KT 07/03 A2993 RMK A01 T00680033  RH  078%=      5-min Rain = 0
KCO2 181120Z 15006KT 07/03 A2993 RMK A01 T00670033  RH  079%=      5-min Rain = 0
KCO2 181121Z 15006KT 07/03 A2993 RMK A01 T00670033  RH  079%=      5-min Rain = 0
KCO2 181122Z 15006KT 07/03 A2993 RMK A01 T00670033  RH  079%=      5-min Rain = 0
KCO2 181123Z 15006KT 07/03 A2993 RMK A01 T00670033  RH  079%=      5-min Rain = 0
KCO2 181124Z 15006KT 07/03 A2993 RMK A01 T00670033  RH  079%=      5-min Rain = 0
KCO2 181125Z 15006KT 07/03 A2993 RMK A01 T00680034  RH  079%=      5-min Rain = 0
KCO2 181126Z 15006KT 07/03 A2993 RMK A01 T00680034  RH  079%=      5-min Rain = 0
KCO2 181127Z 15006KT 07/03 A2993 RMK A01 T00680034  RH  079%=      5-min Rain = 0
KCO2 181128Z 15006KT 07/03 A2993 RMK A01 T00680034  RH  079%=      5-min Rain = 0
KCO2 181129Z 15007KT 07/03 A2993 RMK A01 T00670033  RH  079%=      5-min Rain = 0
KCO2 181130Z 15007KT 07/03 A2993 RMK A01 T00670033  RH  079%=      5-min Rain = 0
KCO2 181131Z 15007KT 07/03 A2993 RMK A01 T00660033  RH  079%=      5-min Rain = 0
KCO2 181132Z 15007KT 07/03 A2992 RMK A01 T00660033  RH  079%=      5-min Rain = 0
KCO2 181133Z 15007KT 07/03 A2992 RMK A01 T00660033  RH  079%=      5-min Rain = 0
KCO2 181134Z 15007KT 07/03 A2992 RMK A01 T00660033  RH  079%=      5-min Rain = 0
KCO2 181135Z 15007KT 07/03 A2992 RMK A01 T00660033  RH  079%=      5-min Rain = 0
KCO2 181136Z 15007KT 07/03 A2992 RMK A01 T00660033  RH  079%=      5-min Rain = 0
KCO2 181137Z 15007KT 07/03 A2993 RMK A01 T00660033  RH  079%=      5-min Rain = 0
KCO2 181138Z 15007KT 07/03 A2993 RMK A01 T00660033  RH  079%=      5-min Rain = 0
KCO2 181139Z 15007KT 07/03 A2993 RMK A01 T00660033  RH  079%=      5-min Rain = 0
KCO2 181140Z 15007KT 07/03 A2993 RMK A01 T00660033  RH  079%=      5-min Rain = 0
KCO2 181141Z 15007KT 07/03 A2992 RMK A01 T00660033  RH  080%=      5-min Rain = 0
KCO2 181142Z 15007KT 07/03 A2992 RMK A01 T00660033  RH  080%=      5-min Rain = 0
KCO2 181143Z 15007KT 07/03 A2992 RMK A01 T00650033  RH  080%=      5-min Rain = 0
KCO2 181144Z 15007KT 07/03 A2992 RMK A01 T00650032  RH  080%=      5-min Rain = 0
KCO2 181145Z 15007KT 06/03 A2992 RMK A01 T00640032  RH  080%=      5-min Rain = 0
KCO2 181146Z 15007KT 06/03 A2992 RMK A01 T00640032  RH  080%=      5-min Rain = 0
KCO2 181147Z 15007KT 06/03 A2992 RMK A01 T00640032  RH  080%=      5-min Rain = 0
KCO2 181148Z 15007KT 06/03 A2992 RMK A01 T00640033  RH  080%=      5-min Rain = 0
KCO2 181149Z 15007KT 07/03 A2992 RMK A01 T00650032  RH  080%=      5-min Rain = 0
KCO2 181150Z 15007KT 07/03 A2992 RMK A01 T00650033  RH  080%=      5-min Rain = 0
KCO2 181151Z 15007KT 07/03 A2992 RMK A01 T00660032  RH  079%=      5-min Rain = 0
KCO2 181152Z 15007KT 07/03 A2992 RMK A01 T00660032  RH  079%=      5-min Rain = 0
KCO2 181153Z 14007KT 07/03 A2992 RMK A01 T00660032  RH  079%=      5-min Rain = 0
KCO2 181154Z 14007KT 07/03 A2992 RMK A01 T00650032  RH  080%=      5-min Rain = 0
KCO2 181155Z 14007KT 07/03 A2992 RMK A01 T00650032  RH  080%=      5-min Rain = 0
KCO2 181156Z 14007KT 06/03 A2992 RMK A01 T00640032  RH  080%=      5-min Rain = 0
KCO2 181157Z 15008KT 06/03 A2992 RMK A01 T00640032  RH  080%=      5-min Rain = 0
KCO2 181158Z 14007KT 06/03 A2992 RMK A01 T00640032  RH  080%=      5-min Rain = 0
KCO2 181159Z 14007KT 06/03 A2992 RMK A01 T00640033  RH  080%=      5-min Rain = 0
KCO2 181200Z 14007KT 06/03 A2992 RMK A01 T00640033  RH  081%=      5-min Rain = 0
KCO2 181201Z 15007KT 06/03 A2992 RMK A01 T00630033  RH  081%=      5-min Rain = 0
KCO2 181202Z 15007KT 06/03 A2992 RMK A01 T00630033  RH  081%=      5-min Rain = 0
KCO2 181203Z 14007KT 06/03 A2991 RMK A01 T00630033  RH  081%=      5-min Rain = 0
KCO2 181204Z 15007KT 06/03 A2991 RMK A01 T00630032  RH  081%=      5-min Rain = 0
KCO2 181205Z 15007KT 06/03 A2991 RMK A01 T00640033  RH  081%=      5-min Rain = 0
KCO2 181206Z 15007KT 06/03 A2991 RMK A01 T00630033  RH  081%=      5-min Rain = 0
KCO2 181207Z 15007KT 06/03 A2991 RMK A01 T00630033  RH  081%=      5-min Rain = 0
KCO2 181208Z 15007KT 06/03 A2991 RMK A01 T00630032  RH  081%=      5-min Rain = 0
KCO2 181209Z 15007KT 06/03 A2991 RMK A01 T00630032  RH  081%=      5-min Rain = 0
KCO2 181210Z 15007KT 06/03 A2991 RMK A01 T00630032  RH  081%=      5-min Rain = 0
KCO2 181211Z 15007KT 06/03 A2991 RMK A01 T00620032  RH  081%=      5-min Rain = 0
KCO2 181212Z 15007KT 06/03 A2991 RMK A01 T00630032  RH  081%=      5-min Rain = 0
KCO2 181213Z 15007KT 06/03 A2991 RMK A01 T00620032  RH  081%=      5-min Rain = 0
KCO2 181214Z 15008KT 06/03 A2991 RMK A01 T00630032  RH  081%=      5-min Rain = 0
KCO2 181215Z 15008KT 06/03 A2991 RMK A01 T00620032  RH  081%=      5-min Rain = 0
KCO2 181216Z 15008KT 06/03 A2991 RMK A01 T00620032  RH  081%=      5-min Rain = 0
KCO2 181217Z 15008KT 06/03 A2991 RMK A01 T00620032  RH  081%=      5-min Rain = 0
KCO2 181218Z 16009KT 06/03 A2991 RMK A01 T00620032  RH  081%=      5-min Rain = 0
KCO2 181219Z 16009KT 06/03 A2991 RMK A01 T00620032  RH  081%=      5-min Rain = 0
KCO2 181220Z 16009KT 06/03 A2991 RMK A01 T00630033  RH  081%=      5-min Rain = 0
KCO2 181221Z 16009KT 06/03 A2991 RMK A01 T00630033  RH  081%=      5-min Rain = 0
KCO2 181222Z 16009KT 06/03 A2991 RMK A01 T00640033  RH  081%=      5-min Rain = 0
KCO2 181223Z 16009KT 06/03 A299 RMK A01 T00640033  RH  081%=      5-min Rain = 0
KCO2 181224Z 16009KT 07/03 A299 RMK A01 T00650033  RH  080%=      5-min Rain = 0
KCO2 181225Z 16009KT 07/03 A299 RMK A01 T00650033  RH  080%=      5-min Rain = 0
KCO2 181226Z 16008KT 07/03 A299 RMK A01 T00650033  RH  080%=      5-min Rain = 0
KCO2 181227Z 16008KT 07/03 A299 RMK A01 T00650033  RH  080%=      5-min Rain = 0
KCO2 181228Z 16008KT 07/03 A299 RMK A01 T00650033  RH  080%=      5-min Rain = 0
KCO2 181229Z 16008KT 07/03 A299 RMK A01 T00650033  RH  080%=      5-min Rain = 0
KCO2 181230Z 16008KT 07/03 A299 RMK A01 T00660034  RH  080%=      5-min Rain = 0
KCO2 181231Z 16008KT 07/03 A299 RMK A01 T00660033  RH  080%=      5-min Rain = 0
KCO2 181232Z 16008KT 07/03 A299 RMK A01 T00670034  RH  079%=      5-min Rain = 0
KCO2 181233Z 16008KT 07/03 A299 RMK A01 T00660033  RH  079%=      5-min Rain = 0
KCO2 181234Z 15008KT 07/03 A299 RMK A01 T00670034  RH  079%=      5-min Rain = 0
KCO2 181235Z 15008KT 07/03 A299 RMK A01 T00670033  RH  079%=      5-min Rain = 0
KCO2 181236Z 16008KT 07/03 A299 RMK A01 T00670033  RH  079%=      5-min Rain = 0
KCO2 181237Z 16007KT 07/03 A299 RMK A01 T00670033  RH  079%=      5-min Rain = 0
KCO2 181238Z 16007KT 07/03 A2991 RMK A01 T00670033  RH  079%=      5-min Rain = 0
KCO2 181239Z 15007KT 07/03 A2991 RMK A01 T00670034  RH  079%=      5-min Rain = 0
KCO2 181240Z 16007KT 07/03 A299 RMK A01 T00680034  RH  079%=      5-min Rain = 0
KCO2 181241Z 16007KT 07/03 A299 RMK A01 T00680034  RH  079%=      5-min Rain = 0
KCO2 181242Z 15007KT 07/03 A299 RMK A01 T00680034  RH  079%=      5-min Rain = 0
KCO2 181243Z 15007KT 07/03 A299 RMK A01 T00680034  RH  079%=      5-min Rain = 0
KCO2 181244Z 16007KT 07/03 A299 RMK A01 T00680033  RH  079%=      5-min Rain = 0
KCO2 181245Z 15007KT 07/03 A299 RMK A01 T00680034  RH  079%=      5-min Rain = 0
KCO2 181246Z 16008KT 07/03 A299 RMK A01 T00680034  RH  079%=      5-min Rain = 0
KCO2 181247Z 16008KT 07/03 A2989 RMK A01 T00690034  RH  079%=      5-min Rain = 0
KCO2 181248Z 15008KT 07/04 A2989 RMK A01 T00690035  RH  079%=      5-min Rain = 0
KCO2 181249Z 15008KT 07/04 A2989 RMK A01 T00700035  RH  078%=      5-min Rain = 0
KCO2 181250Z 15008KT 07/04 A2989 RMK A01 T00710035  RH  078%=      5-min Rain = 0
KCO2 181251Z 15007KT 07/04 A2989 RMK A01 T00710035  RH  078%=      5-min Rain = 0
KCO2 181252Z 15007KT 07/04 A2989 RMK A01 T00710035  RH  078%=      5-min Rain = 0
KCO2 181253Z 15007KT 07/04 A2989 RMK A01 T00720036  RH  078%=      5-min Rain = 0
KCO2 181254Z 15007KT 07/04 A299 RMK A01 T00730036  RH  077%=      5-min Rain = 0
KCO2 181255Z 14006KT 07/04 A299 RMK A01 T00730036  RH  077%=      5-min Rain = 0
KCO2 181256Z 14006KT 07/04 A299 RMK A01 T00730035  RH  077%=      5-min Rain = 0
KCO2 181257Z 14006KT 07/04 A299 RMK A01 T00720035  RH  077%=      5-min Rain = 0
KCO2 181258Z 14006KT 07/04 A299 RMK A01 T00710035  RH  078%=      5-min Rain = 0
KCO2 181259Z 14006KT 07/04 A299 RMK A01 T00710035  RH  078%=      5-min Rain = 0
KCO2 181300Z 15006KT 07/03 A299 RMK A01 T00700034  RH  078%=      5-min Rain = 0
KCO2 181301Z 15006KT 07/03 A299 RMK A01 T00690034  RH  078%=      5-min Rain = 0
KCO2 181302Z 15006KT 07/03 A299 RMK A01 T00680034  RH  079%=      5-min Rain = 0
KCO2 181303Z 15006KT 07/03 A299 RMK A01 T00680034  RH  079%=      5-min Rain = 0
KCO2 181304Z 15006KT 07/03 A2989 RMK A01 T00680033  RH  079%=      5-min Rain = 0
KCO2 181305Z 15006KT 07/03 A2989 RMK A01 T00680033  RH  079%=      5-min Rain = 0
KCO2 181306Z 16006KT 07/03 A2989 RMK A01 T00680034  RH  079%=      5-min Rain = 0
KCO2 181307Z 15006KT 07/03 A2989 RMK A01 T00670033  RH  079%=      5-min Rain = 0
KCO2 181308Z 15006KT 07/03 A2989 RMK A01 T00680034  RH  079%=      5-min Rain = 0
KCO2 181309Z 15007KT 07/03 A2989 RMK A01 T00670033  RH  079%=      5-min Rain = 0
KCO2 181310Z 15006KT 07/03 A2989 RMK A01 T00670033  RH  079%=      5-min Rain = 0
KCO2 181311Z 15006KT 07/03 A2989 RMK A01 T00660033  RH  079%=      5-min Rain = 0
KCO2 181312Z 16006KT 07/03 A2989 RMK A01 T00660034  RH  080%=      5-min Rain = 0
KCO2 181313Z 16006KT 07/03 A2989 RMK A01 T00660034  RH  080%=      5-min Rain = 0
KCO2 181314Z 15006KT 07/03 A2989 RMK A01 T00660034  RH  080%=      5-min Rain = 0
KCO2 181315Z 16006KT 07/03 A2989 RMK A01 T00670034  RH  080%=      5-min Rain = 0
KCO2 181316Z 16006KT 07/03 A2989 RMK A01 T00660034  RH  080%=      5-min Rain = 0
KCO2 181317Z 16007KT 07/03 A2989 RMK A01 T00660034  RH  080%=      5-min Rain = 0
KCO2 181318Z 17006KT 07/04 A2989 RMK A01 T00670035  RH  080%=      5-min Rain = 0
KCO2 181319Z 17007KT 07/03 A2989 RMK A01 T00670034  RH  080%=      5-min Rain = 0
KCO2 181320Z 16007KT 07/04 A2989 RMK A01 T00670035  RH  080%=      5-min Rain = 0
KCO2 181321Z 16007KT 07/04 A2989 RMK A01 T00680036  RH  080%=      5-min Rain = 0
KCO2 181322Z 16007KT 07/04 A2989 RMK A01 T00690036  RH  079%=      5-min Rain = 0
KCO2 181323Z 16007KT 07/04 A2989 RMK A01 T00700036  RH  079%=      5-min Rain = 0
KCO2 181324Z 16007KT 07/04 A2989 RMK A01 T00710037  RH  079%=      5-min Rain = 0
KCO2 181325Z 16007KT 07/04 A2989 RMK A01 T00710037  RH  078%=      5-min Rain = 0
KCO2 181326Z 16007KT 07/04 A2989 RMK A01 T00720037  RH  078%=      5-min Rain = 0
KCO2 181327Z 16007KT 07/04 A2989 RMK A01 T00710036  RH  078%=      5-min Rain = 0
KCO2 181328Z 15007KT 07/04 A2989 RMK A01 T00720037  RH  078%=      5-min Rain = 0
KCO2 181329Z 16006KT 07/04 A2989 RMK A01 T00710036  RH  078%=      5-min Rain = 0
KCO2 181330Z 16006KT 07/04 A2989 RMK A01 T00710036  RH  078%=      5-min Rain = 0
KCO2 181331Z 16006KT 07/04 A2989 RMK A01 T00710036  RH  079%=      5-min Rain = 0
KCO2 181332Z 16006KT 07/04 A2989 RMK A01 T00710036  RH  079%=      5-min Rain = 0
KCO2 181333Z 17006KT 07/04 A2989 RMK A01 T00700036  RH  079%=      5-min Rain = 0
KCO2 181334Z 17006KT 07/04 A2989 RMK A01 T00700036  RH  079%=      5-min Rain = 0
KCO2 181335Z 17006KT 07/04 A2989 RMK A01 T00700036  RH  079%=      5-min Rain = 0
KCO2 181336Z 17005KT 07/04 A2989 RMK A01 T00700036  RH  079%=      5-min Rain = 0
KCO2 181337Z 17005KT 07/04 A2989 RMK A01 T00700036  RH  079%=      5-min Rain = 0
KCO2 181338Z 18006KT 07/04 A2989 RMK A01 T00710036  RH  079%=      5-min Rain = 0
KCO2 181339Z 18006KT 07/04 A2989 RMK A01 T00710036  RH  079%=      5-min Rain = 0
KCO2 181340Z 18006KT 07/04 A2989 RMK A01 T00710036  RH  079%=      5-min Rain = 0
KCO2 181341Z 18006KT 07/04 A2989 RMK A01 T00710036  RH  078%=      5-min Rain = 0
KCO2 181342Z 18007KT 07/04 A2989 RMK A01 T00700036  RH  079%=      5-min Rain = 0
KCO2 181343Z 18007KT 07/04 A2989 RMK A01 T00700036  RH  079%=      5-min Rain = 0
KCO2 181344Z 17007KT 07/04 A2989 RMK A01 T00690035  RH  079%=      5-min Rain = 0
KCO2 181345Z 17007KT 07/04 A2989 RMK A01 T00680035  RH  079%=      5-min Rain = 0
KCO2 181346Z 17006KT 07/04 A2989 RMK A01 T00680036  RH  080%=      5-min Rain = 0
KCO2 181347Z 17006KT 07/04 A2989 RMK A01 T00680036  RH  080%=      5-min Rain = 0
KCO2 181348Z 17007KT 07/04 A2989 RMK A01 T00670036  RH  080%=      5-min Rain = 0
KCO2 181349Z 17007KT 07/04 A2989 RMK A01 T00680036  RH  080%=      5-min Rain = 0
KCO2 181350Z 17007KT 07/04 A2989 RMK A01 T00680036  RH  080%=      5-min Rain = 0
KCO2 181351Z 17006KT 07/04 A2989 RMK A01 T00680036  RH  080%=      5-min Rain = 0
KCO2 181352Z 16006KT 07/04 A2989 RMK A01 T00680036  RH  080%=      5-min Rain = 0
KCO2 181353Z 16007KT 07/04 A2989 RMK A01 T00680036  RH  080%=      5-min Rain = 0
KCO2 181354Z 16007KT 07/04 A2989 RMK A01 T00680036  RH  080%=      5-min Rain = 0
KCO2 181355Z 16007KT 07/04 A2989 RMK A01 T00680037  RH  080%=      5-min Rain = 0
KCO2 181356Z 16007KT 07/04 A2989 RMK A01 T00690037  RH  080%=      5-min Rain = 0
KCO2 181357Z 16007KT 07/04 A2989 RMK A01 T00690037  RH  080%=      5-min Rain = 0
KCO2 181358Z 16007KT 07/04 A2989 RMK A01 T00690037  RH  080%=      5-min Rain = 0
KCO2 181359Z 15007KT 07/04 A2989 RMK A01 T00690037  RH  080%=      5-min Rain = 0
KCO2 181400Z 15006KT 07/04 A2989 RMK A01 T00690037  RH  080%=      5-min Rain = 0
KCO2 181401Z 15007KT 07/04 A2988 RMK A01 T00700037  RH  080%=      5-min Rain = 0
KCO2 181402Z 15007KT 07/04 A2988 RMK A01 T00700037  RH  079%=      5-min Rain = 0
KCO2 181403Z 15007KT 07/04 A2988 RMK A01 T00700037  RH  079%=      5-min Rain = 0
KCO2 181404Z 15006KT 07/04 A2988 RMK A01 T00700037  RH  079%=      5-min Rain = 0
KCO2 181405Z 15006KT 07/04 A2988 RMK A01 T00700037  RH  079%=      5-min Rain = 0
KCO2 181406Z 15006KT 07/04 A2988 RMK A01 T00700037  RH  079%=      5-min Rain = 0
KCO2 181407Z 15005KT 07/04 A2989 RMK A01 T00710038  RH  079%=      5-min Rain = 0
KCO2 181408Z 15005KT 07/04 A2989 RMK A01 T00720038  RH  079%=      5-min Rain = 0
KCO2 181409Z 15005KT 07/04 A2989 RMK A01 T00720038  RH  079%=      5-min Rain = 0
KCO2 181410Z 15005KT 07/04 A2989 RMK A01 T00730038  RH  078%=      5-min Rain = 0
KCO2 181411Z 15005KT 07/04 A2989 RMK A01 T00740038  RH  078%=      5-min Rain = 0
KCO2 181412Z 15005KT 08/04 A2988 RMK A01 T00750038  RH  077%=      5-min Rain = 0
KCO2 181413Z 16006KT 08/04 A2988 RMK A01 T00760038  RH  077%=      5-min Rain = 0
KCO2 181414Z 16006KT 08/04 A2989 RMK A01 T00760038  RH  077%=      5-min Rain = 0
KCO2 181415Z 16006KT 08/04 A2989 RMK A01 T00780039  RH  077%=      5-min Rain = 0
KCO2 181416Z 16005KT 08/04 A2989 RMK A01 T00790039  RH  076%=      5-min Rain = 0
KCO2 181417Z 16005KT 08/04 A2989 RMK A01 T00800040  RH  076%=      5-min Rain = 0
KCO2 181418Z 15005KT 08/04 A2989 RMK A01 T00820040  RH  075%=      5-min Rain = 0
KCO2 181419Z 16004KT 08/04 A2989 RMK A01 T00830040  RH  075%=      5-min Rain = 0
KCO2 181420Z 17004KT 08/04 A2989 RMK A01 T00840041  RH  074%=      5-min Rain = 0
KCO2 181421Z 17003KT 09/04 A2989 RMK A01 T00850041  RH  074%=      5-min Rain = 0
KCO2 181422Z 18004KT 09/04 A2989 RMK A01 T00860041  RH  073%=      5-min Rain = 0
KCO2 181423Z 17004KT 09/04 A2989 RMK A01 T00880042  RH  073%=      5-min Rain = 0
KCO2 181424Z 17004KT 09/04 A2989 RMK A01 T00890042  RH  073%=      5-min Rain = 0
KCO2 181425Z 17005KT 09/04 A2989 RMK A01 T00900042  RH  072%=      5-min Rain = 0
KCO2 181426Z 16005KT 09/04 A2988 RMK A01 T00920043  RH  071%=      5-min Rain = 0
KCO2 181427Z 16006KT 09/04 A2988 RMK A01 T00920042  RH  071%=      5-min Rain = 0
KCO2 181428Z 16006KT 09/04 A2988 RMK A01 T00930043  RH  071%=      5-min Rain = 0
KCO2 181429Z 16005KT 09/04 A2988 RMK A01 T00930043  RH  071%=      5-min Rain = 0
KCO2 181430Z 17006KT 09/04 A2988 RMK A01 T00940044  RH  071%=      5-min Rain = 0
KCO2 181431Z 17006KT 10/04 A2988 RMK A01 T00950044  RH  071%=      5-min Rain = 0
KCO2 181432Z 17005KT 10/04 A2988 RMK A01 T00950044  RH  070%=      5-min Rain = 0
KCO2 181433Z 17006KT 10/05 A2988 RMK A01 T00960045  RH  070%=      5-min Rain = 0
KCO2 181434Z 17006KT 10/04 A2988 RMK A01 T00960044  RH  070%=      5-min Rain = 0
KCO2 181435Z 17007KT 10/05 A2988 RMK A01 T00960045  RH  070%=      5-min Rain = 0
KCO2 181436Z 17007KT 10/05 A2988 RMK A01 T00970045  RH  070%=      5-min Rain = 0
KCO2 181437Z 17007KT 10/05 A2988 RMK A01 T00960045  RH  071%=      5-min Rain = 0
KCO2 181438Z 17007KT 10/05 A2988 RMK A01 T00960045  RH  071%=      5-min Rain = 0
KCO2 181439Z 18007KT 10/05 A2988 RMK A01 T00960047  RH  071%=      5-min Rain = 0
KCO2 181440Z 18008KT 10/05 A2988 RMK A01 T00980047  RH  070%=      5-min Rain = 0
KCO2 181441Z 18007KT 10/05 A2988 RMK A01 T01000048  RH  070%=      5-min Rain = 0
KCO2 181442Z 18008KT 10/05 A2988 RMK A01 T01020048  RH  069%=      5-min Rain = 0
KCO2 181443Z 18007KT 10/05 A2988 RMK A01 T01040048  RH  069%=      5-min Rain = 0
KCO2 181444Z 18008KT 11/05 A2988 RMK A01 T01050048  RH  068%=      5-min Rain = 0
KCO2 181445Z 18007KT 11/05 A2988 RMK A01 T01060049  RH  068%=      5-min Rain = 0
KCO2 181446Z 18007KT 11/05 A2988 RMK A01 T01060049  RH  068%=      5-min Rain = 0
KCO2 181447Z 18006KT 11/05 A2988 RMK A01 T01060050  RH  068%=      5-min Rain = 0
KCO2 181448Z 19007KT 11/05 A2988 RMK A01 T01070050  RH  068%=      5-min Rain = 0
KCO2 181449Z 19007KT 11/05 A2988 RMK A01 T01080050  RH  067%=      5-min Rain = 0
KCO2 181450Z 19007KT 11/05 A2988 RMK A01 T01080050  RH  067%=      5-min Rain = 0
KCO2 181451Z 19007KT 11/05 A2989 RMK A01 T01100051  RH  067%=      5-min Rain = 0
KCO2 181452Z 19006KT 11/05 A2988 RMK A01 T01100050  RH  066%=      5-min Rain = 0
KCO2 181453Z 19008KT 11/05 A2988 RMK A01 T01110051  RH  066%=      5-min Rain = 0
KCO2 181454Z 19007KT 11/05 A2988 RMK A01 T01120050  RH  066%=      5-min Rain = 0
KCO2 181455Z 19006KT 11/05 A2988 RMK A01 T01120050  RH  066%=      5-min Rain = 0
KCO2 181456Z 19005KT 11/05 A2988 RMK A01 T01120051  RH  066%=      5-min Rain = 0
KCO2 181457Z 19006KT 11/05 A2989 RMK A01 T01140051  RH  065%=      5-min Rain = 0
KCO2 181458Z 20007KT 11/05 A2989 RMK A01 T01140050  RH  065%=      5-min Rain = 0
KCO2 181459Z 20008KT 12/05 A2989 RMK A01 T01150051  RH  065%=      5-min Rain = 0
KCO2 181500Z 19007KT 12/05 A2989 RMK A01 T01150052  RH  065%=      5-min Rain = 0
KCO2 181501Z 19008KT 12/05 A2988 RMK A01 T01160051  RH  064%=      5-min Rain = 0
KCO2 181502Z 19009KT 12/05 A2988 RMK A01 T01160052  RH  065%=      5-min Rain = 0
KCO2 181503Z 19008KT 12/05 A2988 RMK A01 T01180052  RH  064%=      5-min Rain = 0
KCO2 181504Z 19009KT 12/05 A2988 RMK A01 T01180051  RH  064%=      5-min Rain = 0
KCO2 181505Z 19008KT 12/05 A2988 RMK A01 T01180052  RH  064%=      5-min Rain = 0
KCO2 181506Z 19009KT 12/05 A2988 RMK A01 T01190053  RH  064%=      5-min Rain = 0
KCO2 181507Z 20009KT 12/05 A2988 RMK A01 T01210053  RH  063%=      5-min Rain = 0
KCO2 181508Z 20009KT 12/05 A2988 RMK A01 T01210052  RH  063%=      5-min Rain = 0
KCO2 181509Z 20009KT 12/05 A2988 RMK A01 T01210052  RH  063%=      5-min Rain = 0
KCO2 181510Z 19009KT 12/05 A2988 RMK A01 T01210053  RH  063%=      5-min Rain = 0
KCO2 181511Z 19009KT 12/05 A2988 RMK A01 T01220054  RH  063%=      5-min Rain = 0
KCO2 181512Z 19010KT 12/05 A2988 RMK A01 T01230054  RH  062%=      5-min Rain = 0
KCO2 181513Z 19010KT 12/05 A2988 RMK A01 T01240053  RH  062%=      5-min Rain = 0
KCO2 181514Z 18008KT 12/05 A2988 RMK A01 T01240054  RH  062%=      5-min Rain = 0
KCO2 181515Z 18007KT 13/06 A2987 RMK A01 T01250055  RH  062%=      5-min Rain = 0
KCO2 181516Z 19008KT 13/06 A2987 RMK A01 T01270055  RH  062%=      5-min Rain = 0
KCO2 181517Z 18009KT 13/06 A2987 RMK A01 T01270055  RH  062%=      5-min Rain = 0
KCO2 181518Z 20009KT 13/05 A2987 RMK A01 T01260054  RH  061%=      5-min Rain = 0
KCO2 181519Z 19010KT 13/06 A2987 RMK A01 T01270055  RH  062%=      5-min Rain = 0
KCO2 181520Z 20007KT 13/06 A2987 RMK A01 T01280056  RH  061%=      5-min Rain = 0
KCO2 181521Z 20007KT 13/06 A2987 RMK A01 T01290056  RH  061%=      5-min Rain = 0
KCO2 181522Z 20010KT 13/06 A2987 RMK A01 T01290056  RH  061%=      5-min Rain = 0
KCO2 181523Z 20009KT 13/06 A2987 RMK A01 T01290056  RH  061%=      5-min Rain = 0
KCO2 181524Z 20010KT 13/06 A2987 RMK A01 T01300056  RH  061%=      5-min Rain = 0
KCO2 181525Z 20011KT 13/06 A2987 RMK A01 T01310056  RH  061%=      5-min Rain = 0
KCO2 181526Z 20010KT 13/06 A2987 RMK A01 T01320055  RH  060%=      5-min Rain = 0
KCO2 181527Z 20009KT 13/06 A2987 RMK A01 T01320056  RH  060%=      5-min Rain = 0
KCO2 181528Z 20009KT 13/06 A2987 RMK A01 T01320057  RH  060%=      5-min Rain = 0
KCO2 181529Z 20009KT 13/06 A2987 RMK A01 T01330058  RH  060%=      5-min Rain = 0
KCO2 181530Z 19007KT 13/06 A2987 RMK A01 T01340057  RH  060%=      5-min Rain = 0
KCO2 181531Z 19008KT 14/06 A2987 RMK A01 T01350058  RH  060%=      5-min Rain = 0
KCO2 181532Z 20011KT 14/06 A2987 RMK A01 T01360057  RH  059%=      5-min Rain = 0
KCO2 181533Z 20011KT 14/06 A2987 RMK A01 T01370055  RH  058%=      5-min Rain = 0
KCO2 181534Z 20009KT 14/06 A2987 RMK A01 T01360057  RH  058%=      5-min Rain = 0
KCO2 181535Z 20010KT 14/06 A2987 RMK A01 T01360057  RH  059%=      5-min Rain = 0
KCO2 181536Z 20009KT 14/06 A2987 RMK A01 T01360057  RH  059%=      5-min Rain = 0
KCO2 181537Z 20011KT 14/06 A2987 RMK A01 T01360056  RH  058%=      5-min Rain = 0
KCO2 181538Z 20009KT 14/06 A2987 RMK A01 T01360055  RH  058%=      5-min Rain = 0
KCO2 181539Z 21010KT 14/06 A2987 RMK A01 T01360056  RH  059%=      5-min Rain = 0
KCO2 181540Z 20010KT 14/06 A2987 RMK A01 T01360056  RH  058%=      5-min Rain = 0
KCO2 181541Z 20011KT 14/06 A2987 RMK A01 T01360057  RH  058%=      5-min Rain = 0
KCO2 181542Z 20010KT 14/06 A2987 RMK A01 T01360056  RH  058%=      5-min Rain = 0
KCO2 181543Z 20010KT 14/06 A2987 RMK A01 T01360057  RH  059%=      5-min Rain = 0
KCO2 181544Z 19009KT 14/06 A2988 RMK A01 T01360058  RH  059%=      5-min Rain = 0
KCO2 181545Z 20007KT 14/06 A2988 RMK A01 T01380059  RH  059%=      5-min Rain = 0
KCO2 181546Z 21007KT 14/06 A2988 RMK A01 T01410061  RH  058%=      5-min Rain = 0
KCO2 181547Z 20009KT 14/06 A2988 RMK A01 T01420059  RH  057%=      5-min Rain = 0
KCO2 181548Z 20009KT 14/06 A2988 RMK A01 T01430059  RH  057%=      5-min Rain = 0
KCO2 181549Z 21008KT 14/06 A2988 RMK A01 T01420058  RH  057%=      5-min Rain = 0
KCO2 181550Z 20009KT 14/06 A2988 RMK A01 T01410058  RH  058%=      5-min Rain = 0
KCO2 181551Z 21008KT 14/06 A2988 RMK A01 T01400058  RH  058%=      5-min Rain = 0
KCO2 181552Z 21010KT 14/06 A2988 RMK A01 T01390058  RH  058%=      5-min Rain = 0
KCO2 181553Z 21009KT 14/06 A2988 RMK A01 T01380058  RH  058%=      5-min Rain = 0
KCO2 181554Z 21008KT 14/06 A2988 RMK A01 T01380058  RH  059%=      5-min Rain = 0
KCO2 181555Z 21006KT 14/06 A2988 RMK A01 T01380059  RH  059%=      5-min Rain = 0
KCO2 181556Z 21007KT 14/06 A2988 RMK A01 T01390060  RH  059%=      5-min Rain = 0
KCO2 181557Z 21008KT 14/06 A2988 RMK A01 T01400060  RH  059%=      5-min Rain = 0
KCO2 181558Z 21007KT 14/06 A2988 RMK A01 T01400059  RH  058%=      5-min Rain = 0
KCO2 181559Z 21008KT 14/06 A2988 RMK A01 T01400059  RH  058%=      5-min Rain = 0
KCO2 181600Z 21007KT 14/06 A2988 RMK A01 T01420060  RH  058%=      5-min Rain = 0
KCO2 181601Z 20007KT 14/06 A2988 RMK A01 T01440062  RH  058%=      5-min Rain = 0
KCO2 181602Z 20008KT 15/06 A2988 RMK A01 T01470061  RH  057%=      5-min Rain = 0
KCO2 181603Z 20006KT 15/06 A2988 RMK A01 T01480062  RH  056%=      5-min Rain = 0
KCO2 181604Z 20008KT 15/06 A2988 RMK A01 T01500063  RH  056%=      5-min Rain = 0
KCO2 181605Z 20008KT 15/06 A2988 RMK A01 T01500060  RH  055%=      5-min Rain = 0
KCO2 181606Z 20009KT 15/06 A2988 RMK A01 T01480060  RH  055%=      5-min Rain = 0
KCO2 181607Z 20009KT 15/06 A2988 RMK A01 T01500061  RH  055%=      5-min Rain = 0
KCO2 181608Z 20008KT 15/06 A2987 RMK A01 T01520061  RH  054%=      5-min Rain = 0
KCO2 181609Z 20011KT 16/06 A2987 RMK A01 T01550062  RH  054%=      5-min Rain = 0
KCO2 181610Z 20008KT 16/06 A2987 RMK A01 T01570061  RH  053%=      5-min Rain = 0
KCO2 181611Z 20010KT 16/06 A2988 RMK A01 T01590062  RH  052%=      5-min Rain = 0
KCO2 181612Z 20008KT 16/06 A2988 RMK A01 T01590061  RH  052%=      5-min Rain = 0
KCO2 181613Z 20010KT 16/06 A2988 RMK A01 T01590062  RH  052%=      5-min Rain = 0
KCO2 181614Z 20011KT 16/06 A2988 RMK A01 T01600061  RH  052%=      5-min Rain = 0
KCO2 181615Z 19010G15KT 16/06 A2987 RMK A01 T01620061  RH  051%=      5-min Rain = 0
KCO2 181616Z 20009KT 16/06 A2987 RMK A01 T01620061  RH  051%=      5-min Rain = 0
KCO2 181617Z 21009KT 16/06 A2987 RMK A01 T01630061  RH  051%=      5-min Rain = 0
KCO2 181618Z 21010KT 16/06 A2988 RMK A01 T01640061  RH  050%=      5-min Rain = 0
KCO2 181619Z 21011KT 17/06 A2988 RMK A01 T01660062  RH  050%=      5-min Rain = 0
KCO2 181620Z 21008KT 17/06 A2988 RMK A01 T01670062  RH  050%=      5-min Rain = 0
KCO2 181621Z 20009KT 17/06 A2988 RMK A01 T01680063  RH  050%=      5-min Rain = 0
KCO2 181622Z 20009KT 17/06 A2988 RMK A01 T01690063  RH  049%=      5-min Rain = 0
KCO2 181623Z 20010KT 17/06 A2987 RMK A01 T01700062  RH  049%=      5-min Rain = 0
KCO2 181624Z 21010KT 17/06 A2987 RMK A01 T01690062  RH  049%=      5-min Rain = 0
KCO2 181625Z 20010KT 17/06 A2987 RMK A01 T01690062  RH  049%=      5-min Rain = 0
KCO2 181626Z 20011KT 17/06 A2987 RMK A01 T01700062  RH  049%=      5-min Rain = 0
KCO2 181627Z 20011KT 17/06 A2987 RMK A01 T01700062  RH  049%=      5-min Rain = 0
KCO2 181628Z 20010KT 17/06 A2987 RMK A01 T01700063  RH  049%=      5-min Rain = 0
KCO2 181629Z 20012KT 17/06 A2987 RMK A01 T01720063  RH  049%=      5-min Rain = 0
KCO2 181630Z 21010KT 17/06 A2987 RMK A01 T01730063  RH  049%=      5-min Rain = 0
KCO2 181631Z 21013KT 17/06 A2987 RMK A01 T01740063  RH  048%=      5-min Rain = 0
KCO2 181632Z 20012KT 18/06 A2986 RMK A01 T01750062  RH  048%=      5-min Rain = 0
KCO2 181633Z 21010KT 18/06 A2986 RMK A01 T01750063  RH  048%=      5-min Rain = 0
KCO2 181634Z 21011KT 18/06 A2986 RMK A01 T01760064  RH  048%=      5-min Rain = 0
KCO2 181635Z 21008KT 18/07 A2987 RMK A01 T01780065  RH  048%=      5-min Rain = 0
KCO2 181636Z 21009KT 18/07 A2987 RMK A01 T01800067  RH  047%=      5-min Rain = 0
KCO2 181637Z 20011KT 18/07 A2987 RMK A01 T01820066  RH  047%=      5-min Rain = 0
KCO2 181638Z 20011KT 18/06 A2987 RMK A01 T01810064  RH  046%=      5-min Rain = 0
KCO2 181639Z 20009KT 18/07 A2986 RMK A01 T01790066  RH  047%=      5-min Rain = 0
KCO2 181640Z 20009KT 18/07 A2986 RMK A01 T01800068  RH  048%=      5-min Rain = 0
KCO2 181641Z 20012G17KT 18/07 A2986 RMK A01 T01830068  RH  047%=      5-min Rain = 0
KCO2 181642Z 21015KT 19/06 A2986 RMK A01 T01850062  RH  045%=      5-min Rain = 0
KCO2 181643Z 22012KT 19/06 A2986 RMK A01 T01860061  RH  044%=      5-min Rain = 0
KCO2 181644Z 21013KT 19/06 A2986 RMK A01 T01880060  RH  043%=      5-min Rain = 0
KCO2 181645Z 22013KT 19/06 A2986 RMK A01 T01900060  RH  043%=      5-min Rain = 0
KCO2 181646Z 21009KT 19/06 A2986 RMK A01 T01900061  RH  043%=      5-min Rain = 0
KCO2 181647Z 22012KT 19/06 A2986 RMK A01 T01920062  RH  042%=      5-min Rain = 0
KCO2 181648Z 20013G20KT 19/06 A2986 RMK A01 T01940060  RH  041%=      5-min Rain = 0
KCO2 181649Z 21012KT 20/06 A2986 RMK A01 T01950057  RH  040%=      5-min Rain = 0
KCO2 181650Z 21011KT 20/06 A2986 RMK A01 T01960059  RH  041%=      5-min Rain = 0
KCO2 181651Z 21011KT 20/06 A2986 RMK A01 T01970060  RH  041%=      5-min Rain = 0
KCO2 181652Z 22010KT 20/06 A2985 RMK A01 T01980061  RH  041%=      5-min Rain = 0
KCO2 181653Z 22014KT 20/06 A2985 RMK A01 T01990060  RH  040%=      5-min Rain = 0
KCO2 181654Z 21014KT 20/06 A2985 RMK A01 T01990060  RH  040%=      5-min Rain = 0
KCO2 181655Z 22014G19KT 20/06 A2985 RMK A01 T01990056  RH  039%=      5-min Rain = 0
KCO2 181656Z 22012G17KT 20/06 A2985 RMK A01 T02000057  RH  039%=      5-min Rain = 0
KCO2 181657Z 21013G18KT 20/06 A2985 RMK A01 T02010060  RH  040%=      5-min Rain = 0
KCO2 181658Z 21012KT 20/06 A2985 RMK A01 T02010063  RH  040%=      5-min Rain = 0
KCO2 181659Z 21013KT 20/06 A2985 RMK A01 T02010062  RH  040%=      5-min Rain = 0
KCO2 181700Z 21011KT 20/06 A2985 RMK A01 T02020062  RH  040%=      5-min Rain = 0
KCO2 181701Z 23014KT 20/06 A2985 RMK A01 T02030061  RH  039%=      5-min Rain = 0
KCO2 181702Z 24019KT 21/05 A2984 RMK A01 T02050053  RH  037%=      5-min Rain = 0
KCO2 181703Z 22015KT 21/05 A2984 RMK A01 T02070052  RH  036%=      5-min Rain = 0
KCO2 181704Z 22015KT 21/06 A2984 RMK A01 T02080055  RH  037%=      5-min Rain = 0
KCO2 181705Z 23016G21KT 21/06 A2984 RMK A01 T02070056  RH  037%=      5-min Rain = 0
KCO2 181706Z 23019G25KT 21/05 A2984 RMK A01 T02080048  RH  035%=      5-min Rain = 0
KCO2 181707Z 23020G27KT 21/04 A2984 RMK A01 T02090043  RH  034%=      5-min Rain = 0
KCO2 181708Z 23022G28KT 21/04 A2984 RMK A01 T02090043  RH  034%=      5-min Rain = 0
KCO2 181709Z 23017KT 21/04 A2984 RMK A01 T02090042  RH  033%=      5-min Rain = 0
KCO2 181710Z 23017G23KT 21/04 A2984 RMK A01 T02100042  RH  033%=      5-min Rain = 0
KCO2 181711Z 24019G24KT 21/04 A2985 RMK A01 T02100042  RH  033%=      5-min Rain = 0
KCO2 181712Z 23021G26KT 21/04 A2985 RMK A01 T02110042  RH  033%=      5-min Rain = 0
KCO2 181713Z 23019G26KT 21/04 A2985 RMK A01 T02120042  RH  033%=      5-min Rain = 0
KCO2 181714Z 23020G29KT 21/04 A2985 RMK A01 T02120040  RH  032%=      5-min Rain = 0
KCO2 181715Z 24019KT 21/04 A2984 RMK A01 T02120041  RH  033%=      5-min Rain = 0
KCO2 181716Z 22019KT 21/04 A2984 RMK A01 T02110042  RH  033%=      5-min Rain = 0
KCO2 181717Z 22016KT 21/04 A2984 RMK A01 T02120042  RH  033%=      5-min Rain = 0
KCO2 181718Z 23017KT 21/04 A2984 RMK A01 T02120043  RH  033%=      5-min Rain = 0
KCO2 181719Z 23018G25KT 21/04 A2984 RMK A01 T02130042  RH  033%=      5-min Rain = 0
KCO2 181720Z 22015KT 21/04 A2984 RMK A01 T02120042  RH  033%=      5-min Rain = 0
KCO2 181721Z 24016KT 21/04 A2984 RMK A01 T02130043  RH  033%=      5-min Rain = 0
KCO2 181722Z 24020G27KT 22/04 A2984 RMK A01 T02150043  RH  032%=      5-min Rain = 0
KCO2 181723Z 24015G20KT 22/04 A2984 RMK A01 T02150041  RH  032%=      5-min Rain = 0
KCO2 181724Z 22014G19KT 22/04 A2984 RMK A01 T02160043  RH  032%=      5-min Rain = 0
KCO2 181725Z 23020G25KT 22/04 A2984 RMK A01 T02170042  RH  032%=      5-min Rain = 0
KCO2 181726Z 23022KT 22/04 A2984 RMK A01 T02170041  RH  032%=      5-min Rain = 0
KCO2 181727Z 23019KT 22/04 A2984 RMK A01 T02160041  RH  032%=      5-min Rain = 0
KCO2 181728Z 23019G24KT 22/04 A2984 RMK A01 T02160041  RH  032%=      5-min Rain = 0
KCO2 181729Z 24017G22KT 22/04 A2984 RMK A01 T02160040  RH  032%=      5-min Rain = 0
KCO2 181730Z 23021KT 22/04 A2983 RMK A01 T02160041  RH  032%=      5-min Rain = 0
KCO2 181731Z 23020KT 22/04 A2983 RMK A01 T02170038  RH  031%=      5-min Rain = 0
KCO2 181732Z 24020KT 22/04 A2983 RMK A01 T02170035  RH  030%=      5-min Rain = 0
KCO2 181733Z 23018G23KT 22/04 A2983 RMK A01 T02170035  RH  030%=      5-min Rain = 0
KCO2 181734Z 24016G21KT 22/04 A2983 RMK A01 T02170036  RH  030%=      5-min Rain = 0
KCO2 181735Z 24015G20KT 22/04 A2983 RMK A01 T02190037  RH  030%=      5-min Rain = 0
KCO2 181736Z 24020KT 22/04 A2983 RMK A01 T02200037  RH  030%=      5-min Rain = 0
KCO2 181737Z 24018KT 22/04 A2983 RMK A01 T02200038  RH  030%=      5-min Rain = 0
KCO2 181738Z 23018G27KT 22/04 A2983 RMK A01 T02200038  RH  030%=      5-min Rain = 0
KCO2 181739Z 24022KT 22/04 A2983 RMK A01 T02190037  RH  030%=      5-min Rain = 0
KCO2 181740Z 24016G21KT 22/04 A2983 RMK A01 T02180037  RH  031%=      5-min Rain = 0
KCO2 181741Z 23018G23KT 22/04 A2983 RMK A01 T02190039  RH  031%=      5-min Rain = 0
KCO2 181742Z 24021KT 22/04 A2983 RMK A01 T02200038  RH  030%=      5-min Rain = 0
KCO2 181743Z 24018KT 22/04 A2983 RMK A01 T02190038  RH  031%=      5-min Rain = 0
KCO2 181744Z 24017KT 22/04 A2983 RMK A01 T02190038  RH  031%=      5-min Rain = 0
KCO2 181745Z 23019G24KT 22/04 A2983 RMK A01 T02200038  RH  030%=      5-min Rain = 0
KCO2 181746Z 23015G23KT 22/04 A2982 RMK A01 T02200038  RH  030%=      5-min Rain = 0
KCO2 181747Z 24020G26KT 22/04 A2982 RMK A01 T02220038  RH  030%=      5-min Rain = 0
KCO2 181748Z 25022G27KT 22/03 A2982 RMK A01 T02210034  RH  029%=      5-min Rain = 0
KCO2 181749Z 23018G23KT 22/04 A2982 RMK A01 T02190036  RH  030%=      5-min Rain = 0
KCO2 181750Z 24020G28KT 22/04 A2982 RMK A01 T02200037  RH  030%=      5-min Rain = 0
KCO2 181751Z 24021G27KT 22/03 A2982 RMK A01 T02200034  RH  029%=      5-min Rain = 0
KCO2 181752Z 23021KT 22/03 A2982 RMK A01 T02190034  RH  030%=      5-min Rain = 0
KCO2 181753Z 24015G20KT 22/04 A2982 RMK A01 T02190035  RH  030%=      5-min Rain = 0
KCO2 181754Z 24022KT 22/04 A2981 RMK A01 T02210035  RH  030%=      5-min Rain = 0
KCO2 181755Z 24019KT 22/03 A2982 RMK A01 T02210034  RH  029%=      5-min Rain = 0
KCO2 181756Z 24015G21KT 22/04 A2982 RMK A01 T02210036  RH  030%=      5-min Rain = 0
KCO2 181757Z 24018G24KT 22/04 A2981 RMK A01 T02230037  RH  030%=      5-min Rain = 0
KCO2 181758Z 24017G23KT 22/03 A2981 RMK A01 T02230034  RH  029%=      5-min Rain = 0
KCO2 181759Z 24018G23KT 22/04 A2981 RMK A01 T02240035  RH  029%=      5-min Rain = 0
KCO2 181800Z 24020KT 23/03 A2981 RMK A01 T02250034  RH  029%=      5-min Rain = 0
KCO2 181801Z 24020G25KT 23/03 A2981 RMK A01 T02250033  RH  028%=      5-min Rain = 0
KCO2 181802Z 23021KT 23/03 A2981 RMK A01 T02250031  RH  028%=      5-min Rain = 0
KCO2 181803Z 23017KT 23/03 A2981 RMK A01 T02260033  RH  028%=      5-min Rain = 0
KCO2 181804Z 23016G24KT 23/03 A298 RMK A01 T02290031  RH  027%=      5-min Rain = 0
KCO2 181805Z 24021G27KT 23/03 A298 RMK A01 T02300031  RH  027%=      5-min Rain = 0
KCO2 181806Z 25022KT 23/03 A298 RMK A01 T02310029  RH  027%=      5-min Rain = 0
KCO2 181807Z 25024KT 23/03 A298 RMK A01 T02300028  RH  027%=      5-min Rain = 0
KCO2 181808Z 25021KT 23/03 A298 RMK A01 T02290027  RH  027%=      5-min Rain = 0
KCO2 181809Z 25021KT 23/03 A298 RMK A01 T02280029  RH  027%=      5-min Rain = 0
KCO2 181810Z 23021G27KT 23/03 A298 RMK A01 T02280028  RH  027%=      5-min Rain = 0
KCO2 181811Z 25021KT 23/03 A298 RMK A01 T02270027  RH  027%=      5-min Rain = 0
KCO2 181812Z 23023G29KT 23/03 A2979 RMK A01 T02260025  RH  027%=      5-min Rain = 0
KCO2 181813Z 24019G25KT 23/03 A298 RMK A01 T02250026  RH  027%=      5-min Rain = 0
KCO2 181814Z 24019KT 23/03 A2979 RMK A01 T02270027  RH  027%=      5-min Rain = 0
KCO2 181815Z 25022KT 23/03 A2979 RMK A01 T02270026  RH  027%=      5-min Rain = 0
KCO2 181816Z 25019KT 23/02 A2979 RMK A01 T02260024  RH  027%=      5-min Rain = 0
KCO2 181817Z 25018G27KT 23/03 A2979 RMK A01 T02250026  RH  027%=      5-min Rain = 0
KCO2 181818Z 25023G31KT 23/02 A2979 RMK A01 T02250024  RH  027%=      5-min Rain = 0
KCO2 181819Z 25020G26KT 22/02 A2979 RMK A01 T02240023  RH  027%=      5-min Rain = 0
KCO2 181820Z 25024G29KT 22/02 A2979 RMK A01 T02240021  RH  026%=      5-min Rain = 0
KCO2 181821Z 25021G26KT 22/02 A2979 RMK A01 T02230021  RH  026%=      5-min Rain = 0
KCO2 181822Z 25020KT 22/02 A2978 RMK A01 T02230022  RH  027%=      5-min Rain = 0
KCO2 181823Z 25017G23KT 22/02 A2978 RMK A01 T02230022  RH  027%=      5-min Rain = 0
KCO2 181824Z 24018G24KT 22/02 A2978 RMK A01 T02230023  RH  027%=      5-min Rain = 0
KCO2 181825Z 25019G25KT 22/02 A2978 RMK A01 T02230024  RH  027%=      5-min Rain = 0
KCO2 181826Z 24021G27KT 22/02 A2978 RMK A01 T02230023  RH  027%=      5-min Rain = 0
KCO2 181827Z 24017G23KT 22/02 A2978 RMK A01 T02230022  RH  027%=      5-min Rain = 0
KCO2 181828Z 25017KT 22/02 A2978 RMK A01 T02230023  RH  027%=      5-min Rain = 0
KCO2 181829Z 25017KT 23/02 A2978 RMK A01 T02250024  RH  027%=      5-min Rain = 0
KCO2 181830Z 25020G26KT 23/03 A2978 RMK A01 T02310026  RH  026%=      5-min Rain = 0
KCO2 181831Z 25021G27KT 23/02 A2977 RMK A01 T02330021  RH  025%=      5-min Rain = 0
KCO2 181832Z 26022G28KT 23/02 A2977 RMK A01 T02330018  RH  024%=      5-min Rain = 0
KCO2 181833Z 25020G26KT 23/02 A2977 RMK A01 T02330018  RH  024%=      5-min Rain = 0
KCO2 181834Z 26022KT 23/02 A2977 RMK A01 T02340019  RH  024%=      5-min Rain = 0
KCO2 181835Z 25027KT 23/02 A2977 RMK A01 T02340016  RH  024%=      5-min Rain = 0
KCO2 181836Z 25026KT 23/01 A2976 RMK A01 T02320014  RH  024%=      5-min Rain = 0
KCO2 181837Z 25024G31KT 23/01 A2976 RMK A01 T02310013  RH  024%=      5-min Rain = 0
KCO2 181838Z 24022KT 23/01 A2976 RMK A01 T02300014  RH  024%=      5-min Rain = 0
KCO2 181839Z 25024G30KT 23/01 A2976 RMK A01 T02310014  RH  024%=      5-min Rain = 0
KCO2 181840Z 25027KT 23/01 A2976 RMK A01 T02310013  RH  024%=      5-min Rain = 0
KCO2 181841Z 25022G30KT 23/01 A2976 RMK A01 T02320013  RH  024%=      5-min Rain = 0
KCO2 181842Z 24023G29KT 23/01 A2976 RMK A01 T02340014  RH  023%=      5-min Rain = 0
KCO2 181843Z 24025KT 24/01 A2976 RMK A01 T02350014  RH  023%=      5-min Rain = 0
KCO2 181844Z 24020KT 24/01 A2976 RMK A01 T02350014  RH  023%=      5-min Rain = 0
KCO2 181845Z 25017G29KT 24/02 A2976 RMK A01 T02370016  RH  024%=      5-min Rain = 0
KCO2 181846Z 25022G28KT 24/01 A2976 RMK A01 T02380014  RH  023%=      5-min Rain = 0
KCO2 181847Z 25022G27KT 24/01 A2976 RMK A01 T02370013  RH  023%=      5-min Rain = 0
KCO2 181848Z 25023G30KT 24/01 A2976 RMK A01 T02360013  RH  023%=      5-min Rain = 0
KCO2 181849Z 25027G34KT 24/01 A2976 RMK A01 T02350013  RH  023%=      5-min Rain = 0
KCO2 181850Z 26022G28KT 23/01 A2976 RMK A01 T02330013  RH  024%=      5-min Rain = 0
KCO2 181851Z 26018G24KT 23/01 A2976 RMK A01 T02320014  RH  024%=      5-min Rain = 0
KCO2 181852Z 26023G30KT 23/01 A2976 RMK A01 T02330014  RH  024%=      5-min Rain = 0
KCO2 181853Z 24028KT 23/01 A2976 RMK A01 T02320013  RH  024%=      5-min Rain = 0
KCO2 181854Z 25026G33KT 23/01 A2976 RMK A01 T02300011  RH  024%=      5-min Rain = 0
KCO2 181855Z 25023G28KT 23/01 A2976 RMK A01 T02290011  RH  024%=      5-min Rain = 0
KCO2 181856Z 24022KT 23/01 A2975 RMK A01 T02280013  RH  024%=      5-min Rain = 0
KCO2 181857Z 25020G27KT 23/01 A2975 RMK A01 T02290014  RH  024%=      5-min Rain = 0
KCO2 181858Z 25022G29KT 23/01 A2975 RMK A01 T02290014  RH  024%=      5-min Rain = 0
KCO2 181859Z 25029KT 23/01 A2975 RMK A01 T02290012  RH  024%=      5-min Rain = 0
KCO2 181900Z 25023G33KT 23/01 A2975 RMK A01 T02290012  RH  024%=      5-min Rain = 0
KCO2 181901Z 25028G33KT 23/01 A2975 RMK A01 T02290012  RH  024%=      5-min Rain = 0
KCO2 181902Z 25023G29KT 23/01 A2975 RMK A01 T02290011  RH  024%=      5-min Rain = 0
KCO2 181903Z 24023G31KT 23/01 A2975 RMK A01 T02290013  RH  024%=      5-min Rain = 0
KCO2 181904Z 25020KT 23/01 A2975 RMK A01 T02290014  RH  024%=      5-min Rain = 0
KCO2 181905Z 25025G30KT 23/02 A2975 RMK A01 T02320015  RH  024%=      5-min Rain = 0
KCO2 181906Z 26022KT 23/01 A2975 RMK A01 T02330014  RH  024%=      5-min Rain = 0
KCO2 181907Z 26019G25KT 24/02 A2975 RMK A01 T02350016  RH  024%=      5-min Rain = 0
KCO2 181908Z 25018G23KT 24/02 A2975 RMK A01 T02390019  RH  024%=      5-min Rain = 0
KCO2 181909Z 26020G29KT 24/02 A2975 RMK A01 T02440021  RH  023%=      5-min Rain = 0
KCO2 181910Z 25020KT 25/02 A2975 RMK A01 T02450018  RH  023%=      5-min Rain = 0
KCO2 181911Z 26021G26KT 24/02 A2975 RMK A01 T02440017  RH  023%=      5-min Rain = 0
KCO2 181912Z 26020G28KT 24/02 A2975 RMK A01 T02420018  RH  023%=      5-min Rain = 0
KCO2 181913Z 25022G29KT 24/02 A2975 RMK A01 T02410017  RH  023%=      5-min Rain = 0
KCO2 181914Z 25029G36KT 24/01 A2975 RMK A01 T02380013  RH  023%=      5-min Rain = 0
KCO2 181915Z 25024G29KT 23/01 A2975 RMK A01 T02330012  RH  023%=      5-min Rain = 0
KCO2 181916Z 25021G28KT 23/02 A2975 RMK A01 T02330015  RH  024%=      5-min Rain = 0
KCO2 181917Z 25025KT 23/01 A2975 RMK A01 T02320014  RH  024%=      5-min Rain = 0
KCO2 181918Z 25027G32KT 23/01 A2975 RMK A01 T02300013  RH  024%=      5-min Rain = 0
KCO2 181919Z 25026G32KT 23/01 A2975 RMK A01 T02290011  RH  024%=      5-min Rain = 0
KCO2 181920Z 26025G34KT 23/01 A2975 RMK A01 T02280012  RH  024%=      5-min Rain = 0
KCO2 181921Z 26023G29KT 23/01 A2975 RMK A01 T02260011  RH  024%=      5-min Rain = 0
KCO2 181922Z 25024G30KT 23/01 A2975 RMK A01 T02260012  RH  024%=      5-min Rain = 0
KCO2 181923Z 26024G30KT 23/01 A2975 RMK A01 T02260012  RH  024%=      5-min Rain = 0
KCO2 181924Z 26027G35KT 23/01 A2974 RMK A01 T02260012  RH  024%=      5-min Rain = 0
KCO2 181925Z 26025KT 23/01 A2974 RMK A01 T02250012  RH  024%=      5-min Rain = 0
KCO2 181926Z 26020G26KT 23/01 A2974 RMK A01 T02250013  RH  025%=      5-min Rain = 0
KCO2 181927Z 25022G27KT 23/01 A2974 RMK A01 T02250013  RH  025%=      5-min Rain = 0
KCO2 181928Z 25018G25KT 23/01 A2974 RMK A01 T02250013  RH  025%=      5-min Rain = 0
KCO2 181929Z 26021G30KT 23/02 A2974 RMK A01 T02250015  RH  025%=      5-min Rain = 0
KCO2 181930Z 26017G22KT 23/02 A2974 RMK A01 T02250016  RH  025%=      5-min Rain = 0
KCO2 181931Z 27018G26KT 23/02 A2974 RMK A01 T02250016  RH  025%=      5-min Rain = 0
KCO2 181932Z 27021G27KT 23/01 A2974 RMK A01 T02260014  RH  025%=      5-min Rain = 0
KCO2 181933Z 26021KT 23/01 A2973 RMK A01 T02260014  RH  025%=      5-min Rain = 0
KCO2 181934Z 26021KT 23/01 A2973 RMK A01 T02250014  RH  025%=      5-min Rain = 0
KCO2 181935Z 27018KT 23/02 A2973 RMK A01 T02250015  RH  025%=      5-min Rain = 0
KCO2 181936Z 26018G23KT 23/02 A2973 RMK A01 T02260016  RH  025%=      5-min Rain = 0
KCO2 181937Z 26017KT 23/02 A2973 RMK A01 T02270016  RH  025%=      5-min Rain = 0
KCO2 181938Z 26024G30KT 23/02 A2973 RMK A01 T02280017  RH  025%=      5-min Rain = 0
KCO2 181939Z 27018G24KT 23/02 A2973 RMK A01 T02280017  RH  025%=      5-min Rain = 0
KCO2 181940Z 27019KT 23/02 A2972 RMK A01 T02280017  RH  025%=      5-min Rain = 0
KCO2 181941Z 26015KT 23/02 A2972 RMK A01 T02280018  RH  025%=      5-min Rain = 0
KCO2 181942Z 25018G28KT 23/02 A2972 RMK A01 T02290020  RH  025%=      5-min Rain = 0
KCO2 181943Z 25020KT 23/02 A2972 RMK A01 T02290017  RH  025%=      5-min Rain = 0
KCO2 181944Z 25023KT 23/02 A2972 RMK A01 T02270015  RH  025%=      5-min Rain = 0
KCO2 181945Z 25022KT 23/02 A2972 RMK A01 T02250015  RH  025%=      5-min Rain = 0
KCO2 181946Z 25020KT 22/02 A2972 RMK A01 T02240016  RH  025%=      5-min Rain = 0
KCO2 181947Z 26019G24KT 22/02 A2972 RMK A01 T02240016  RH  025%=      5-min Rain = 0
KCO2 181948Z 26017G22KT 22/02 A2972 RMK A01 T02230017  RH  026%=      5-min Rain = 0
KCO2 181949Z 27017G25KT 22/02 A2972 RMK A01 T02240019  RH  026%=      5-min Rain = 0
KCO2 181950Z 26019KT 22/02 A2972 RMK A01 T02230019  RH  026%=      5-min Rain = 0
KCO2 181951Z 26018G24KT 22/02 A2972 RMK A01 T02220019  RH  026%=      5-min Rain = 0
KCO2 181952Z 26017G28KT 22/02 A2972 RMK A01 T02220019  RH  026%=      5-min Rain = 0
KCO2 181953Z 26016G21KT 22/02 A2972 RMK A01 T02210018  RH  026%=      5-min Rain = 0
KCO2 181954Z 27018G25KT 22/02 A2972 RMK A01 T02210018  RH  026%=      5-min Rain = 0
KCO2 181955Z 26021G26KT 22/02 A2972 RMK A01 T02200016  RH  026%=      5-min Rain = 0
KCO2 181956Z 27024G29KT 22/02 A2972 RMK A01 T02190015  RH  026%=      5-min Rain = 0
KCO2 181957Z 27022G27KT 22/02 A2972 RMK A01 T02190015  RH  026%=      5-min Rain = 0
KCO2 181958Z 26022KT 22/02 A2972 RMK A01 T02190015  RH  026%=      5-min Rain = 0
KCO2 181959Z 26025G30KT 22/02 A2972 RMK A01 T02190015  RH  026%=      5-min Rain = 0
KCO2 182000Z 26020G28KT 22/02 A2972 RMK A01 T02180015  RH  026%=      5-min Rain = 0
KCO2 182001Z 26018KT 22/02 A2972 RMK A01 T02180016  RH  026%=      5-min Rain = 0
KCO2 182002Z 26021KT 22/02 A2972 RMK A01 T02180016  RH  026%=      5-min Rain = 0
KCO2 182003Z 26019G24KT 22/02 A2972 RMK A01 T02180016  RH  026%=      5-min Rain = 0
KCO2 182004Z 26021G28KT 22/02 A2972 RMK A01 T02180016  RH  026%=      5-min Rain = 0
KCO2 182005Z 26023G28KT 22/02 A2971 RMK A01 T02180016  RH  026%=      5-min Rain = 0
KCO2 182006Z 26021KT 22/02 A2971 RMK A01 T02180016  RH  026%=      5-min Rain = 0
KCO2 182007Z 26018G27KT 22/02 A2971 RMK A01 T02180017  RH  026%=      5-min Rain = 0
KCO2 182008Z 26021G26KT 22/02 A2971 RMK A01 T02180016  RH  026%=      5-min Rain = 0
KCO2 182009Z 26021G27KT 22/02 A2971 RMK A01 T02180016  RH  026%=      5-min Rain = 0
KCO2 182010Z 26020KT 22/02 A2971 RMK A01 T02190016  RH  026%=      5-min Rain = 0
KCO2 182011Z 26016G23KT 22/02 A2971 RMK A01 T02190017  RH  026%=      5-min Rain = 0
KCO2 182012Z 26015G20KT 22/02 A2971 RMK A01 T02200018  RH  026%=      5-min Rain = 0
KCO2 182013Z 26014G19KT 22/02 A2971 RMK A01 T02210019  RH  026%=      5-min Rain = 0
KCO2 182014Z 26017G24KT 22/02 A2971 RMK A01 T02210019  RH  026%=      5-min Rain = 0
KCO2 182015Z 26019KT 22/02 A2971 RMK A01 T02210018  RH  026%=      5-min Rain = 0
KCO2 182016Z 25019G28KT 22/02 A2971 RMK A01 T02220019  RH  026%=      5-min Rain = 0
KCO2 182017Z 25017G23KT 22/02 A2971 RMK A01 T02220019  RH  026%=      5-min Rain = 0
KCO2 182018Z 25017KT 22/02 A2971 RMK A01 T02220019  RH  026%=      5-min Rain = 0
KCO2 182019Z 26018KT 22/02 A2971 RMK A01 T02220019  RH  026%=      5-min Rain = 0
KCO2 182020Z 26017G22KT 22/02 A297 RMK A01 T02220019  RH  026%=      5-min Rain = 0
KCO2 182021Z 26020G25KT 22/02 A297 RMK A01 T02220019  RH  026%=      5-min Rain = 0
KCO2 182022Z 26020G25KT 22/02 A297 RMK A01 T02220019  RH  026%=      5-min Rain = 0
KCO2 182023Z 26017KT 22/02 A297 RMK A01 T02210019  RH  026%=      5-min Rain = 0
KCO2 182024Z 26016G22KT 22/02 A297 RMK A01 T02220020  RH  026%=      5-min Rain = 0
KCO2 182025Z 26018KT 22/02 A297 RMK A01 T02240021  RH  026%=      5-min Rain = 0
KCO2 182026Z 25015G20KT 23/02 A297 RMK A01 T02250021  RH  026%=      5-min Rain = 0
KCO2 182027Z 25017G23KT 23/02 A297 RMK A01 T02250021  RH  026%=      5-min Rain = 0
KCO2 182028Z 26016G22KT 23/02 A297 RMK A01 T02260022  RH  026%=      5-min Rain = 0
KCO2 182029Z 26021G27KT 23/02 A297 RMK A01 T02260020  RH  026%=      5-min Rain = 0
KCO2 182030Z 27018G23KT 23/02 A297 RMK A01 T02250020  RH  026%=      5-min Rain = 0
KCO2 182031Z 27021G27KT 23/02 A297 RMK A01 T02250020  RH  026%=      5-min Rain = 0
KCO2 182032Z 25021G28KT 23/02 A297 RMK A01 T02250019  RH  026%=      5-min Rain = 0
KCO2 182033Z 26022G27KT 23/02 A2969 RMK A01 T02250020  RH  026%=      5-min Rain = 0
KCO2 182034Z 26019KT 23/02 A2969 RMK A01 T02250020  RH  026%=      5-min Rain = 0
KCO2 182035Z 26020G26KT 23/02 A2969 RMK A01 T02260021  RH  026%=      5-min Rain = 0
KCO2 182036Z 26018G23KT 23/02 A2969 RMK A01 T02260021  RH  026%=      5-min Rain = 0
KCO2 182037Z 26016G21KT 23/02 A2969 RMK A01 T02270021  RH  026%=      5-min Rain = 0
KCO2 182038Z 26021G30KT 23/02 A2969 RMK A01 T02270020  RH  026%=      5-min Rain = 0
KCO2 182039Z 25021G26KT 23/02 A2969 RMK A01 T02270019  RH  025%=      5-min Rain = 0
KCO2 182040Z 26023G29KT 23/02 A2969 RMK A01 T02270019  RH  025%=      5-min Rain = 0
KCO2 182041Z 25018KT 23/02 A2969 RMK A01 T02280020  RH  025%=      5-min Rain = 0
KCO2 182042Z 26019KT 23/02 A2969 RMK A01 T02300022  RH  025%=      5-min Rain = 0
KCO2 182043Z 26024G29KT 23/02 A2969 RMK A01 T02320020  RH  025%=      5-min Rain = 0
KCO2 182044Z 26022G28KT 23/02 A2969 RMK A01 T02310019  RH  025%=      5-min Rain = 0
KCO2 182045Z 25021G27KT 23/02 A2969 RMK A01 T02310020  RH  025%=      5-min Rain = 0
KCO2 182046Z 26023G30KT 23/02 A2969 RMK A01 T02310019  RH  025%=      5-min Rain = 0
KCO2 182047Z 26024G30KT 23/02 A2969 RMK A01 T02310017  RH  025%=      5-min Rain = 0
KCO2 182048Z 25024KT 23/02 A2969 RMK A01 T02300018  RH  025%=      5-min Rain = 0
KCO2 182049Z 25020G25KT 23/02 A2969 RMK A01 T02300018  RH  025%=      5-min Rain = 0
KCO2 182050Z 26022KT 23/02 A2969 RMK A01 T02320018  RH  025%=      5-min Rain = 0
KCO2 182051Z 25024KT 23/02 A2969 RMK A01 T02320018  RH  024%=      5-min Rain = 0
KCO2 182052Z 26021G26KT 23/02 A2968 RMK A01 T02310017  RH  024%=      5-min Rain = 0
KCO2 182053Z 26021G28KT 23/02 A2968 RMK A01 T02310018  RH  025%=      5-min Rain = 0
KCO2 182054Z 26019KT 23/02 A2968 RMK A01 T02320019  RH  025%=      5-min Rain = 0
KCO2 182055Z 25022G27KT 23/02 A2968 RMK A01 T02330020  RH  025%=      5-min Rain = 0
KCO2 182056Z 25021KT 23/02 A2969 RMK A01 T02330020  RH  025%=      5-min Rain = 0
KCO2 182057Z 26021KT 23/02 A2969 RMK A01 T02340020  RH  024%=      5-min Rain = 0
KCO2 182058Z 27020KT 23/02 A2969 RMK A01 T02340019  RH  024%=      5-min Rain = 0
KCO2 182059Z 26018G24KT 23/02 A2969 RMK A01 T02340020  RH  024%=      5-min Rain = 0
KCO2 182100Z 26021G26KT 24/02 A2969 RMK A01 T02350020  RH  024%=      5-min Rain = 0
KCO2 182101Z 26022KT 24/02 A2969 RMK A01 T02350019  RH  024%=      5-min Rain = 0
KCO2 182102Z 25020G25KT 23/02 A2969 RMK A01 T02340019  RH  024%=      5-min Rain = 0
KCO2 182103Z 26023G28KT 23/02 A2969 RMK A01 T02340018  RH  024%=      5-min Rain = 0
KCO2 182104Z 26022G27KT 23/02 A2969 RMK A01 T02330018  RH  024%=      5-min Rain = 0
KCO2 182105Z 26019G25KT 23/02 A2969 RMK A01 T02330019  RH  024%=      5-min Rain = 0
KCO2 182106Z 26021G27KT 23/02 A2969 RMK A01 T02340020  RH  024%=      5-min Rain = 0
KCO2 182107Z 26021G28KT 24/02 A2969 RMK A01 T02350019  RH  024%=      5-min Rain = 0
KCO2 182108Z 25023G28KT 23/02 A2969 RMK A01 T02340017  RH  024%=      5-min Rain = 0
KCO2 182109Z 25023G28KT 23/02 A2969 RMK A01 T02330017  RH  024%=      5-min Rain = 0
KCO2 182110Z 26021G27KT 23/02 A2969 RMK A01 T02330017  RH  024%=      5-min Rain = 0
KCO2 182111Z 26023KT 23/02 A2969 RMK A01 T02330017  RH  024%=      5-min Rain = 0
KCO2 182112Z 26023KT 23/02 A2969 RMK A01 T02330017  RH  024%=      5-min Rain = 0
KCO2 182113Z 25019G24KT 23/02 A2969 RMK A01 T02340018  RH  024%=      5-min Rain = 0
KCO2 182114Z 26023G29KT 24/02 A2969 RMK A01 T02350018  RH  024%=      5-min Rain = 0
KCO2 182115Z 26023G30KT 24/02 A2969 RMK A01 T02350016  RH  024%=      5-min Rain = 0
KCO2 182116Z 25020G28KT 23/02 A2969 RMK A01 T02340017  RH  024%=      5-min Rain = 0
KCO2 182117Z 26019G26KT 24/02 A2969 RMK A01 T02360019  RH  024%=      5-min Rain = 0
KCO2 182118Z 26023G28KT 24/02 A2969 RMK A01 T02360018  RH  024%=      5-min Rain = 0
KCO2 182119Z 26025KT 24/02 A2969 RMK A01 T02360017  RH  024%=      5-min Rain = 0
KCO2 182120Z 26021G27KT 23/02 A2969 RMK A01 T02340017  RH  024%=      5-min Rain = 0
KCO2 182121Z 25023G30KT 24/02 A2969 RMK A01 T02350017  RH  024%=      5-min Rain = 0
KCO2 182122Z 25019G25KT 24/02 A2969 RMK A01 T02350016  RH  024%=      5-min Rain = 0
KCO2 182123Z 26020G27KT 24/02 A2969 RMK A01 T02360017  RH  024%=      5-min Rain = 0
KCO2 182124Z 25025G31KT 24/02 A2969 RMK A01 T02370016  RH  023%=      5-min Rain = 0
KCO2 182125Z 25026KT 24/01 A2969 RMK A01 T02360014  RH  023%=      5-min Rain = 0
KCO2 182126Z 26022KT 23/01 A2969 RMK A01 T02340014  RH  023%=      5-min Rain = 0
KCO2 182127Z 25020KT 23/02 A2969 RMK A01 T02340015  RH  024%=      5-min Rain = 0
KCO2 182128Z 25021KT 24/02 A2969 RMK A01 T02350016  RH  024%=      5-min Rain = 0
KCO2 182129Z 26020G26KT 24/02 A2969 RMK A01 T02350016  RH  024%=      5-min Rain = 0
KCO2 182130Z 25023KT 24/02 A2969 RMK A01 T02350016  RH  024%=      5-min Rain = 0
KCO2 182131Z 26021KT 23/02 A2969 RMK A01 T02340015  RH  024%=      5-min Rain = 0
KCO2 182132Z 26020G25KT 23/02 A2969 RMK A01 T02330015  RH  024%=      5-min Rain = 0
KCO2 182133Z 26018KT 23/02 A2969 RMK A01 T02320016  RH  024%=      5-min Rain = 0
KCO2 182134Z 26019G26KT 23/02 A2969 RMK A01 T02330017  RH  024%=      5-min Rain = 0
KCO2 182135Z 27018KT 23/02 A2969 RMK A01 T02330017  RH  024%=      5-min Rain = 0
KCO2 182136Z 26019G25KT 23/02 A2969 RMK A01 T02330017  RH  024%=      5-min Rain = 0
KCO2 182137Z 26017KT 23/02 A2969 RMK A01 T02310017  RH  024%=      5-min Rain = 0
KCO2 182138Z 27021KT 23/02 A2969 RMK A01 T02310016  RH  024%=      5-min Rain = 0
KCO2 182139Z 27020G25KT 23/02 A2969 RMK A01 T02310015  RH  024%=      5-min Rain = 0
KCO2 182140Z 27021G26KT 23/01 A2969 RMK A01 T02320014  RH  024%=      5-min Rain = 0
KCO2 182141Z 27020KT 23/01 A2969 RMK A01 T02310013  RH  024%=      5-min Rain = 0
KCO2 182142Z 26019G27KT 23/01 A2969 RMK A01 T02290012  RH  024%=      5-min Rain = 0
KCO2 182143Z 27023G29KT 23/01 A2969 RMK A01 T02280012  RH  024%=      5-min Rain = 0
KCO2 182144Z 27022G27KT 23/01 A2969 RMK A01 T02280012  RH  024%=      5-min Rain = 0
KCO2 182145Z 27023G29KT 23/01 A2969 RMK A01 T02280013  RH  024%=      5-min Rain = 0
KCO2 182146Z 27020G25KT 23/01 A2969 RMK A01 T02290013  RH  024%=      5-min Rain = 0
KCO2 182147Z 26019KT 23/01 A2969 RMK A01 T02300013  RH  024%=      5-min Rain = 0
KCO2 182148Z 27017G26KT 23/01 A2969 RMK A01 T02300014  RH  024%=      5-min Rain = 0
KCO2 182149Z 27015G20KT 23/01 A2969 RMK A01 T02300014  RH  024%=      5-min Rain = 0
KCO2 182150Z 27015G22KT 23/02 A2969 RMK A01 T02300016  RH  024%=      5-min Rain = 0
KCO2 182151Z 27021KT 23/02 A2969 RMK A01 T02300016  RH  024%=      5-min Rain = 0
KCO2 182152Z 27021G26KT 23/01 A2969 RMK A01 T02290014  RH  024%=      5-min Rain = 0
KCO2 182153Z 27020G26KT 23/01 A2969 RMK A01 T02270014  RH  024%=      5-min Rain = 0
KCO2 182154Z 27021KT 23/01 A2969 RMK A01 T02260014  RH  025%=      5-min Rain = 0
KCO2 182155Z 27023KT 23/01 A2969 RMK A01 T02250014  RH  025%=      5-min Rain = 0
KCO2 182156Z 27021KT 23/01 A2969 RMK A01 T02250014  RH  025%=      5-min Rain = 0
KCO2 182157Z 28019KT 23/02 A2969 RMK A01 T02250015  RH  025%=      5-min Rain = 0
KCO2 182158Z 27018KT 22/02 A2969 RMK A01 T02240015  RH  025%=      5-min Rain = 0
KCO2 182159Z 27016KT 22/02 A2969 RMK A01 T02240016  RH  025%=      5-min Rain = 0
KCO2 182200Z 27016KT 22/02 A2969 RMK A01 T02240016  RH  025%=      5-min Rain = 0
KCO2 182201Z 26017G24KT 22/02 A2969 RMK A01 T02240016  RH  025%=      5-min Rain = 0
KCO2 182202Z 25018KT 22/02 A2969 RMK A01 T02240016  RH  025%=      5-min Rain = 0
KCO2 182203Z 26018G23KT 22/01 A2969 RMK A01 T02230014  RH  025%=      5-min Rain = 0
KCO2 182204Z 26017KT 22/01 A2969 RMK A01 T02230014  RH  025%=      5-min Rain = 0
KCO2 182205Z 26015KT 22/01 A2969 RMK A01 T02220014  RH  025%=      5-min Rain = 0
KCO2 182206Z 27013KT 22/02 A2969 RMK A01 T02220015  RH  026%=      5-min Rain = 0
KCO2 182207Z 27012G18KT 22/02 A297 RMK A01 T02220016  RH  026%=      5-min Rain = 0
KCO2 182208Z 27015G20KT 22/02 A297 RMK A01 T02210016  RH  026%=      5-min Rain = 0
KCO2 182209Z 27017KT 22/02 A297 RMK A01 T02210015  RH  026%=      5-min Rain = 0
KCO2 182210Z 27018G24KT 22/01 A297 RMK A01 T02210014  RH  026%=      5-min Rain = 0
KCO2 182211Z 27017G23KT 22/01 A297 RMK A01 T02210014  RH  025%=      5-min Rain = 0
KCO2 182212Z 28016G22KT 22/01 A297 RMK A01 T02200014  RH  025%=      5-min Rain = 0
KCO2 182213Z 28015KT 22/01 A297 RMK A01 T02200014  RH  026%=      5-min Rain = 0
KCO2 182214Z 27016KT 22/01 A297 RMK A01 T02200014  RH  026%=      5-min Rain = 0
KCO2 182215Z 28014KT 22/01 A297 RMK A01 T02200014  RH  026%=      5-min Rain = 0
KCO2 182216Z 28013KT 22/01 A297 RMK A01 T02190014  RH  026%=      5-min Rain = 0
KCO2 182217Z 27018G23KT 22/01 A297 RMK A01 T02190014  RH  026%=      5-min Rain = 0
KCO2 182218Z 27016G21KT 22/01 A297 RMK A01 T02190014  RH  026%=      5-min Rain = 0
KCO2 182219Z 28017KT 22/01 A297 RMK A01 T02190014  RH  026%=      5-min Rain = 0
KCO2 182220Z 28017KT 22/01 A297 RMK A01 T02180013  RH  026%=      5-min Rain = 0
KCO2 182221Z 27013KT 22/01 A297 RMK A01 T02180014  RH  026%=      5-min Rain = 0
KCO2 182222Z 27016G21KT 22/01 A297 RMK A01 T02180014  RH  026%=      5-min Rain = 0
KCO2 182223Z 27017KT 22/01 A297 RMK A01 T02180014  RH  026%=      5-min Rain = 0
KCO2 182224Z 27017KT 22/01 A297 RMK A01 T02180013  RH  026%=      5-min Rain = 0
KCO2 182225Z 27016KT 22/01 A297 RMK A01 T02180013  RH  026%=      5-min Rain = 0
KCO2 182226Z 26015G20KT 22/01 A297 RMK A01 T02180013  RH  026%=      5-min Rain = 0
KCO2 182227Z 26015KT 22/01 A297 RMK A01 T02180014  RH  026%=      5-min Rain = 0
KCO2 182228Z 27016KT 22/01 A297 RMK A01 T02170013  RH  026%=      5-min Rain = 0
KCO2 182229Z 27017KT 22/01 A297 RMK A01 T02170013  RH  026%=      5-min Rain = 0
KCO2 182230Z 27015KT 22/01 A297 RMK A01 T02170012  RH  026%=      5-min Rain = 0
KCO2 182231Z 28017G22KT 22/01 A297 RMK A01 T02170012  RH  026%=      5-min Rain = 0
KCO2 182232Z 28016G21KT 22/01 A297 RMK A01 T02170011  RH  026%=      5-min Rain = 0
KCO2 182233Z 27016G21KT 22/01 A297 RMK A01 T02170011  RH  025%=      5-min Rain = 0
KCO2 182234Z 27013KT 22/01 A297 RMK A01 T02170011  RH  026%=      5-min Rain = 0
KCO2 182235Z 27015G21KT 22/01 A297 RMK A01 T02160009  RH  025%=      5-min Rain = 0
KCO2 182236Z 27017KT 22/01 A297 RMK A01 T02160008  RH  025%=      5-min Rain = 0
KCO2 182237Z 27015KT 22/01 A297 RMK A01 T02160007  RH  025%=      5-min Rain = 0
KCO2 182238Z 27014KT 22/01 A297 RMK A01 T02160007  RH  025%=      5-min Rain = 0
KCO2 182239Z 27014KT 22/01 A297 RMK A01 T02160007  RH  025%=      5-min Rain = 0
KCO2 182240Z 27013KT 22/01 A297 RMK A01 T02160007  RH  025%=      5-min Rain = 0
KCO2 182241Z 27013KT 22/01 A297 RMK A01 T02160008  RH  025%=      5-min Rain = 0
KCO2 182242Z 27012KT 22/01 A297 RMK A01 T02150008  RH  025%=      5-min Rain = 0
KCO2 182243Z 27013KT 22/01 A297 RMK A01 T02150008  RH  025%=      5-min Rain = 0
KCO2 182244Z 27013KT 21/01 A297 RMK A01 T02140009  RH  026%=      5-min Rain = 0
KCO2 182245Z 26016KT 21/01 A297 RMK A01 T02140009  RH  026%=      5-min Rain = 0
KCO2 182246Z 27016G21KT 21/01 A297 RMK A01 T02140007  RH  025%=      5-min Rain = 0
KCO2 182247Z 26012KT 22/01 A297 RMK A01 T02150008  RH  025%=      5-min Rain = 0
KCO2 182248Z 27015KT 22/01 A297 RMK A01 T02150008  RH  025%=      5-min Rain = 0
KCO2 182249Z 27016KT 22/01 A297 RMK A01 T02150009  RH  025%=      5-min Rain = 0
KCO2 182250Z 27017KT 22/01 A297 RMK A01 T02150009  RH  025%=      5-min Rain = 0
KCO2 182251Z 28015KT 22/01 A297 RMK A01 T02150008  RH  025%=      5-min Rain = 0
KCO2 182252Z 27013KT 22/01 A297 RMK A01 T02150008  RH  025%=      5-min Rain = 0
KCO2 182253Z 27014G19KT 22/01 A297 RMK A01 T02150009  RH  025%=      5-min Rain = 0
KCO2 182254Z 27016KT 22/01 A297 RMK A01 T02150008  RH  025%=      5-min Rain = 0
KCO2 182255Z 27014G19KT 22/01 A297 RMK A01 T02150008  RH  025%=      5-min Rain = 0
KCO2 182256Z 27018G23KT 22/01 A297 RMK A01 T02150007  RH  025%=      5-min Rain = 0
KCO2 182257Z 28019G25KT 22/01 A297 RMK A01 T02150007  RH  025%=      5-min Rain = 0
KCO2 182258Z 27016KT 22/01 A297 RMK A01 T02150007  RH  025%=      5-min Rain = 0
KCO2 182259Z 28015KT 22/01 A297 RMK A01 T02150007  RH  025%=      5-min Rain = 0
KCO2 182300Z 27014KT 22/01 A297 RMK A01 T02150008  RH  025%=      5-min Rain = 0
KCO2 182301Z 27014KT 21/01 A297 RMK A01 T02140009  RH  025%=      5-min Rain = 0
KCO2 182302Z 27013G19KT 21/01 A297 RMK A01 T02140009  RH  026%=      5-min Rain = 0
KCO2 182303Z 28016KT 21/01 A297 RMK A01 T02130009  RH  026%=      5-min Rain = 0
KCO2 182304Z 27015KT 21/01 A297 RMK A01 T02130008  RH  025%=      5-min Rain = 0
KCO2 182305Z 27017G22KT 21/01 A297 RMK A01 T02140008  RH  025%=      5-min Rain = 0
KCO2 182306Z 27015KT 21/01 A297 RMK A01 T02140008  RH  025%=      5-min Rain = 0
KCO2 182307Z 27014KT 21/01 A297 RMK A01 T02140007  RH  025%=      5-min Rain = 0
KCO2 182308Z 27013G19KT 21/01 A297 RMK A01 T02140008  RH  025%=      5-min Rain = 0
KCO2 182309Z 27015G20KT 21/01 A297 RMK A01 T02130008  RH  026%=      5-min Rain = 0
KCO2 182310Z 27014G19KT 21/01 A297 RMK A01 T02130009  RH  026%=      5-min Rain = 0
KCO2 182311Z 27017KT 21/01 A297 RMK A01 T02130009  RH  026%=      5-min Rain = 0
KCO2 182312Z 28013KT 21/01 A297 RMK A01 T02130009  RH  026%=      5-min Rain = 0
KCO2 182313Z 28012KT 21/01 A297 RMK A01 T02130010  RH  026%=      5-min Rain = 0
KCO2 182314Z 28011KT 21/01 A297 RMK A01 T02120010  RH  026%=      5-min Rain = 0
KCO2 182315Z 28012KT 21/01 A297 RMK A01 T02110010  RH  026%=      5-min Rain = 0
KCO2 182316Z 28013KT 21/01 A297 RMK A01 T02110011  RH  026%=      5-min Rain = 0
KCO2 182317Z 28017G22KT 21/01 A297 RMK A01 T02110011  RH  027%=      5-min Rain = 0
KCO2 182318Z 28017G22KT 21/01 A297 RMK A01 T02110012  RH  027%=      5-min Rain = 0
KCO2 182319Z 28019KT 21/02 A297 RMK A01 T02110015  RH  027%=      5-min Rain = 0
KCO2 182320Z 29018KT 21/02 A2971 RMK A01 T02090017  RH  028%=      5-min Rain = 0
KCO2 182321Z 29015KT 21/02 A2971 RMK A01 T02080019  RH  028%=      5-min Rain = 0
KCO2 182322Z 29017KT 21/02 A2971 RMK A01 T02060020  RH  029%=      5-min Rain = 0
KCO2 182323Z 29016KT 21/02 A2971 RMK A01 T02050021  RH  029%=      5-min Rain = 0
KCO2 182324Z 29018KT 20/02 A2971 RMK A01 T02040022  RH  030%=      5-min Rain = 0
KCO2 182325Z 29014KT 20/02 A2971 RMK A01 T02030023  RH  030%=      5-min Rain = 0
KCO2 182326Z 29014KT 20/02 A2971 RMK A01 T02010024  RH  031%=      5-min Rain = 0
KCO2 182327Z 29017KT 20/03 A2971 RMK A01 T02000025  RH  031%=      5-min Rain = 0
KCO2 182328Z 29016KT 20/03 A2971 RMK A01 T01990026  RH  032%=      5-min Rain = 0
KCO2 182329Z 30016KT 20/03 A2971 RMK A01 T01980027  RH  032%=      5-min Rain = 0
KCO2 182330Z 29015KT 20/03 A2971 RMK A01 T01970028  RH  032%=      5-min Rain = 0
KCO2 182331Z 29018KT 20/03 A2971 RMK A01 T01960028  RH  033%=      5-min Rain = 0
KCO2 182332Z 29016KT 20/03 A2971 RMK A01 T01960029  RH  033%=      5-min Rain = 0
KCO2 182333Z 29013G18KT 20/03 A2971 RMK A01 T01950029  RH  033%=      5-min Rain = 0
KCO2 182334Z 28016KT 20/03 A2971 RMK A01 T01950030  RH  033%=      5-min Rain = 0
KCO2 182335Z 29014KT 19/03 A2971 RMK A01 T01940030  RH  034%=      5-min Rain = 0
KCO2 182336Z 29013KT 19/03 A2971 RMK A01 T01940031  RH  034%=      5-min Rain = 0
KCO2 182337Z 29016KT 19/03 A2971 RMK A01 T01930031  RH  034%=      5-min Rain = 0
KCO2 182338Z 30017G22KT 19/03 A2971 RMK A01 T01930031  RH  034%=      5-min Rain = 0
KCO2 182339Z 29014KT 19/03 A2971 RMK A01 T01930032  RH  034%=      5-min Rain = 0
KCO2 182340Z 30016KT 19/03 A2971 RMK A01 T01920031  RH  034%=      5-min Rain = 0
KCO2 182341Z 29017G22KT 19/03 A2971 RMK A01 T01920031  RH  034%=      5-min Rain = 0
KCO2 182342Z 29019G24KT 19/03 A2971 RMK A01 T01920031  RH  034%=      5-min Rain = 0
KCO2 182343Z 29019G24KT 19/03 A2971 RMK A01 T01920031  RH  034%=      5-min Rain = 0
KCO2 182344Z 29018G23KT 19/03 A2972 RMK A01 T01920031  RH  034%=      5-min Rain = 0
KCO2 182345Z 29020KT 19/03 A2972 RMK A01 T01920031  RH  034%=      5-min Rain = 0
KCO2 182346Z 30018G23KT 19/03 A2972 RMK A01 T01920030  RH  034%=      5-min Rain = 0
KCO2 182347Z 29016G21KT 19/03 A2972 RMK A01 T01910031  RH  034%=      5-min Rain = 0
KCO2 182348Z 29019KT 19/03 A2972 RMK A01 T01910031  RH  034%=      5-min Rain = 0
KCO2 182349Z 30019G25KT 19/03 A2972 RMK A01 T01910031  RH  035%=      5-min Rain = 0
KCO2 182350Z 29016KT 19/03 A2972 RMK A01 T01900031  RH  035%=      5-min Rain = 0
KCO2 182351Z 29018KT 19/03 A2972 RMK A01 T01900031  RH  035%=      5-min Rain = 0
KCO2 182352Z 29015KT 19/03 A2972 RMK A01 T01890031  RH  035%=      5-min Rain = 0
KCO2 182353Z 29019G25KT 19/03 A2972 RMK A01 T01890030  RH  035%=      5-min Rain = 0
KCO2 182354Z 30018G23KT 19/03 A2972 RMK A01 T01890030  RH  035%=      5-min Rain = 0
KCO2 182355Z 29020KT 19/03 A2972 RMK A01 T01880029  RH  035%=      5-min Rain = 0
KCO2 182356Z 29016KT 19/03 A2972 RMK A01 T01880029  RH  035%=      5-min Rain = 0
KCO2 182357Z 28016G22KT 19/03 A2972 RMK A01 T01870028  RH  035%=      5-min Rain = 0
KCO2 182358Z 28016KT 19/03 A2972 RMK A01 T01870028  RH  035%=      5-min Rain = 0
KCO2 182359Z 29016KT 19/03 A2973 RMK A01 T01860028  RH  035%=      5-min Rain = 0
KCO2 190000Z 29015KT 19/03 A2973 RMK A01 T01860028  RH  035%=      5-min Rain = 0
KCO2 190001Z 29017G23KT 19/03 A2973 RMK A01 T01860028  RH  035%=      5-min Rain = 0
KCO2 190002Z 29016KT 19/03 A2973 RMK A01 T01850027  RH  035%=      5-min Rain = 0
KCO2 190003Z 30018KT 19/03 A2973 RMK A01 T01850027  RH  035%=      5-min Rain = 0
KCO2 190004Z 29015KT 19/03 A2973 RMK A01 T01850026  RH  035%=      5-min Rain = 0
KCO2 190005Z 29013KT 19/03 A2973 RMK A01 T01850027  RH  035%=      5-min Rain = 0
KCO2 190006Z 29014KT 18/03 A2973 RMK A01 T01840027  RH  035%=      5-min Rain = 0
KCO2 190007Z 29018KT 18/03 A2974 RMK A01 T01830027  RH  035%=      5-min Rain = 0
KCO2 190008Z 29017KT 18/03 A2974 RMK A01 T01830027  RH  035%=      5-min Rain = 0
KCO2 190009Z 29018KT 18/03 A2974 RMK A01 T01830027  RH  035%=      5-min Rain = 0
KCO2 190010Z 28017KT 18/03 A2974 RMK A01 T01820027  RH  036%=      5-min Rain = 0
KCO2 190011Z 29015G20KT 18/03 A2974 RMK A01 T01820027  RH  036%=      5-min Rain = 0
KCO2 190012Z 28017G22KT 18/03 A2974 RMK A01 T01820027  RH  036%=      5-min Rain = 0
KCO2 190013Z 28021G28KT 18/03 A2974 RMK A01 T01810026  RH  035%=      5-min Rain = 0
KCO2 190014Z 28021KT 18/02 A2975 RMK A01 T01810021  RH  034%=      5-min Rain = 0
KCO2 190015Z 29021KT 18/02 A2975 RMK A01 T01820020  RH  034%=      5-min Rain = 0
KCO2 190016Z 29023G31KT 18/02 A2975 RMK A01 T01820016  RH  033%=      5-min Rain = 0
KCO2 190017Z 29024G31KT 18/01 A2975 RMK A01 T01820011  RH  032%=      5-min Rain = 0
KCO2 190018Z 29020G25KT 18/01 A2975 RMK A01 T01820011  RH  032%=      5-min Rain = 0
KCO2 190019Z 29021G30KT 18/01 A2975 RMK A01 T01810010  RH  032%=      5-min Rain = 0
KCO2 190020Z 29025KT 18/01 A2975 RMK A01 T01800006  RH  031%=      5-min Rain = 0
KCO2 190021Z 29023G28KT 18/01 A2975 RMK A01 T01800005  RH  031%=      5-min Rain = 0
KCO2 190022Z 30024G29KT 18/00 A2975 RMK A01 T01800004  RH  031%=      5-min Rain = 0
KCO2 190023Z 30022G32KT 18/00 A2975 RMK A01 T01790004  RH  031%=      5-min Rain = 0
KCO2 190024Z 30031G36KT 18/00 A2975 RMK A01 T01780004  RH  031%=      5-min Rain = 0
KCO2 190025Z 29023G31KT 18/00 A2975 RMK A01 T01780004  RH  031%=      5-min Rain = 0
KCO2 190026Z 29024G30KT 18/01 A2975 RMK A01 T01780008  RH  032%=      5-min Rain = 0
KCO2 190027Z 30022KT 18/01 A2975 RMK A01 T01760011  RH  033%=      5-min Rain = 0
KCO2 190028Z 30024G29KT 18/01 A2975 RMK A01 T01750014  RH  034%=      5-min Rain = 0
KCO2 190029Z 30022KT 17/02 A2975 RMK A01 T01730018  RH  035%=      5-min Rain = 0
KCO2 190030Z 30021G27KT 17/02 A2976 RMK A01 T01710022  RH  037%=      5-min Rain = 0
KCO2 190031Z 29018G23KT 17/02 A2976 RMK A01 T01690023  RH  037%=      5-min Rain = 0
KCO2 190032Z 29017G23KT 17/02 A2976 RMK A01 T01680023  RH  038%=      5-min Rain = 0
KCO2 190033Z 29015G20KT 17/02 A2976 RMK A01 T01670023  RH  038%=      5-min Rain = 0
KCO2 190034Z 29020KT 17/03 A2976 RMK A01 T01660025  RH  039%=      5-min Rain = 0
KCO2 190035Z 30018KT 17/03 A2976 RMK A01 T01650027  RH  040%=      5-min Rain = 0
KCO2 190036Z 29015KT 16/03 A2976 RMK A01 T01630030  RH  041%=      5-min Rain = 0
KCO2 190037Z 30016KT 16/03 A2976 RMK A01 T01620030  RH  041%=      5-min Rain = 0
KCO2 190038Z 29017KT 16/03 A2977 RMK A01 T01610030  RH  041%=      5-min Rain = 0
KCO2 190039Z 30014KT 16/03 A2977 RMK A01 T01610029  RH  041%=      5-min Rain = 0
KCO2 190040Z 29016KT 16/03 A2977 RMK A01 T01610030  RH  041%=      5-min Rain = 0
KCO2 190041Z 29019KT 16/03 A2977 RMK A01 T01600027  RH  041%=      5-min Rain = 0
KCO2 190042Z 29014G20KT 16/03 A2977 RMK A01 T01610027  RH  041%=      5-min Rain = 0
KCO2 190043Z 29015KT 16/03 A2977 RMK A01 T01610027  RH  041%=      5-min Rain = 0
KCO2 190044Z 29017KT 16/03 A2977 RMK A01 T01600027  RH  041%=      5-min Rain = 0
KCO2 190045Z 29018G23KT 16/03 A2978 RMK A01 T01600026  RH  041%=      5-min Rain = 0
KCO2 190046Z 29019G24KT 16/03 A2978 RMK A01 T01600026  RH  040%=      5-min Rain = 0
KCO2 190047Z 28024G37KT 16/03 A2978 RMK A01 T01600028  RH  041%=      5-min Rain = 0
KCO2 190048Z 29025G33KT 16/02 A2978 RMK A01 T01590018  RH  038%=      5-min Rain = 0
KCO2 190049Z 29027G35KT 16/01 A2978 RMK A01 T01590014  RH  037%=      5-min Rain = 0
KCO2 190050Z 30026G33KT 16/01 A2979 RMK A01 T01610009  RH  036%=      5-min Rain = 0
KCO2 190051Z 30028G34KT 16/01 A2978 RMK A01 T01620011  RH  036%=      5-min Rain = 0
KCO2 190052Z 29021G27KT 16/01 A2978 RMK A01 T01630011  RH  036%=      5-min Rain = 0
KCO2 190053Z 29017G22KT 16/01 A2978 RMK A01 T01630012  RH  036%=      5-min Rain = 0
KCO2 190054Z 29015G22KT 16/01 A2978 RMK A01 T01620013  RH  037%=      5-min Rain = 0
KCO2 190055Z 28014KT 16/01 A2978 RMK A01 T01620014  RH  037%=      5-min Rain = 0
KCO2 190056Z 29016KT 16/01 A2978 RMK A01 T01610014  RH  037%=      5-min Rain = 0
KCO2 190057Z 28016G21KT 16/02 A2978 RMK A01 T01600016  RH  038%=      5-min Rain = 0
KCO2 190058Z 28013KT 16/02 A2978 RMK A01 T01590017  RH  038%=      5-min Rain = 0
KCO2 190059Z 29015KT 16/02 A2978 RMK A01 T01590018  RH  038%=      5-min Rain = 0
KCO2 190100Z 29013KT 16/02 A2978 RMK A01 T01590018  RH  039%=      5-min Rain = 0
KCO2 190101Z 29012G17KT 16/02 A2978 RMK A01 T01580019  RH  039%=      5-min Rain = 0
KCO2 190102Z 29015G20KT 16/02 A2977 RMK A01 T01570018  RH  039%=      5-min Rain = 0
KCO2 190103Z 29015KT 16/02 A2977 RMK A01 T01580017  RH  039%=      5-min Rain = 0
KCO2 190104Z 29016G22KT 16/02 A2978 RMK A01 T01580016  RH  038%=      5-min Rain = 0
KCO2 190105Z 28016G21KT 16/02 A2978 RMK A01 T01580015  RH  038%=      5-min Rain = 0
KCO2 190106Z 29016G22KT 16/02 A2978 RMK A01 T01590015  RH  038%=      5-min Rain = 0
KCO2 190107Z 28016KT 16/02 A2977 RMK A01 T01590015  RH  038%=      5-min Rain = 0
KCO2 190108Z 29013G18KT 16/01 A2977 RMK A01 T01590014  RH  038%=      5-min Rain = 0
KCO2 190109Z 28013KT 16/02 A2977 RMK A01 T01580016  RH  038%=      5-min Rain = 0
KCO2 190110Z 29014KT 16/02 A2977 RMK A01 T01580016  RH  038%=      5-min Rain = 0
KCO2 190111Z 28017KT 16/01 A2977 RMK A01 T01580010  RH  037%=      5-min Rain = 0
KCO2 190112Z 28013KT 16/01 A2977 RMK A01 T01590007  RH  036%=      5-min Rain = 0
KCO2 190113Z 29013KT 16/01 A2976 RMK A01 T01590007  RH  036%=      5-min Rain = 0
KCO2 190114Z 28014KT 16/01 A2976 RMK A01 T01590005  RH  035%=      5-min Rain = 0
KCO2 190115Z 29015G20KT 16/00 A2977 RMK A01 T01600001  RH  034%=      5-min Rain = 0
KCO2 190116Z 28018G23KT 16/00 A2977 RMK A01 T01600001  RH  034%=      5-min Rain = 0
KCO2 190117Z 27015KT 16/M00 A2977 RMK A01 T01611001  RH  033%=      5-min Rain = 0
KCO2 190118Z 27011KT 16/00 A2977 RMK A01 T01610000  RH  033%=      5-min Rain = 0
KCO2 190119Z 27009KT 16/00 A2977 RMK A01 T01600001  RH  034%=      5-min Rain = 0
KCO2 190120Z 27010KT 16/00 A2977 RMK A01 T01600001  RH  034%=      5-min Rain = 0
KCO2 190121Z 27009KT 16/M00 A2976 RMK A01 T01591002  RH  033%=      5-min Rain = 0
KCO2 190122Z 26010KT 16/M00 A2976 RMK A01 T01591003  RH  033%=      5-min Rain = 0
KCO2 190123Z 26009KT 16/M00 A2976 RMK A01 T01591003  RH  033%=      5-min Rain = 0
KCO2 190124Z 26009KT 16/M00 A2976 RMK A01 T01591003  RH  033%=      5-min Rain = 0
KCO2 190125Z 26009KT 16/M00 A2976 RMK A01 T01591002  RH  033%=      5-min Rain = 0
KCO2 190126Z 26009KT 16/M00 A2976 RMK A01 T01591002  RH  033%=      5-min Rain = 0
KCO2 190127Z 26009KT 16/M00 A2976 RMK A01 T01591004  RH  033%=      5-min Rain = 0
KCO2 190128Z 26011KT 16/M00 A2976 RMK A01 T01591003  RH  033%=      5-min Rain = 0
KCO2 190129Z 26012KT 16/M01 A2976 RMK A01 T01591006  RH  033%=      5-min Rain = 0
KCO2 190130Z 25010KT 16/M01 A2976 RMK A01 T01591005  RH  033%=      5-min Rain = 0
KCO2 190131Z 25010KT 16/M00 A2976 RMK A01 T01591004  RH  033%=      5-min Rain = 0
KCO2 190132Z 25009KT 16/M00 A2976 RMK A01 T01581004  RH  033%=      5-min Rain = 0
KCO2 190133Z 25009KT 16/M00 A2976 RMK A01 T01571004  RH  033%=      5-min Rain = 0
KCO2 190134Z 25009KT 16/M00 A2976 RMK A01 T01561003  RH  034%=      5-min Rain = 0
KCO2 190135Z 25008KT 16/M00 A2976 RMK A01 T01561004  RH  034%=      5-min Rain = 0
KCO2 190136Z 25010KT 16/M00 A2976 RMK A01 T01561004  RH  034%=      5-min Rain = 0
KCO2 190137Z 25009KT 16/M01 A2976 RMK A01 T01561005  RH  033%=      5-min Rain = 0
KCO2 190138Z 25011KT 16/M00 A2976 RMK A01 T01551004  RH  034%=      5-min Rain = 0
KCO2 190139Z 25010KT 16/M01 A2976 RMK A01 T01551005  RH  034%=      5-min Rain = 0
KCO2 190140Z 25011KT 16/M00 A2977 RMK A01 T01551004  RH  034%=      5-min Rain = 0
KCO2 190141Z 25011KT 16/M00 A2977 RMK A01 T01551004  RH  034%=      5-min Rain = 0
KCO2 190142Z 25012KT 16/M00 A2978 RMK A01 T01551004  RH  034%=      5-min Rain = 0
KCO2 190143Z 25012KT 16/M00 A2979 RMK A01 T01551004  RH  034%=      5-min Rain = 0
KCO2 190144Z 25012KT 16/M00 A2979 RMK A01 T01551004  RH  034%=      5-min Rain = 0
KCO2 190145Z 26013KT 16/M00 A298 RMK A01 T01551003  RH  034%=      5-min Rain = 0
KCO2 190146Z 26013KT 15/M00 A298 RMK A01 T01541003  RH  034%=      5-min Rain = 0
KCO2 190147Z 26012KT 15/M00 A298 RMK A01 T01541003  RH  034%=      5-min Rain = 0
KCO2 190148Z 26012KT 15/M00 A298 RMK A01 T01541003  RH  034%=      5-min Rain = 0
KCO2 190149Z 26013KT 15/M00 A298 RMK A01 T01541004  RH  034%=      5-min Rain = 0
KCO2 190150Z 26014KT 15/M01 A298 RMK A01 T01541005  RH  034%=      5-min Rain = 0
KCO2 190151Z 26013KT 16/M01 A298 RMK A01 T01551007  RH  033%=      5-min Rain = 0
KCO2 190152Z 26017KT 16/M01 A298 RMK A01 T01551011  RH  032%=      5-min Rain = 0
KCO2 190153Z 27017KT 16/M02 A2979 RMK A01 T01571015  RH  031%=      5-min Rain = 0
KCO2 190154Z 26015KT 16/M02 A2979 RMK A01 T01581016  RH  030%=      5-min Rain = 0
KCO2 190155Z 26014KT 16/M02 A2979 RMK A01 T01581016  RH  030%=      5-min Rain = 0
KCO2 190156Z 25015KT 16/M02 A2979 RMK A01 T01581018  RH  030%=      5-min Rain = 0
KCO2 190157Z 26014KT 16/M02 A2978 RMK A01 T01581021  RH  029%=      5-min Rain = 0
KCO2 190158Z 26012KT 16/M02 A2978 RMK A01 T01581021  RH  029%=      5-min Rain = 0
KCO2 190159Z 27010KT 16/M02 A2978 RMK A01 T01581022  RH  029%=      5-min Rain = 0
KCO2 190200Z 28011KT 16/M02 A2978 RMK A01 T01581023  RH  029%=      5-min Rain = 0
KCO2 190201Z 28010KT 16/M02 A2978 RMK A01 T01581023  RH  029%=      5-min Rain = 0
KCO2 190202Z 27015G21KT 16/M03 A2978 RMK A01 T01581025  RH  028%=      5-min Rain = 0
KCO2 190203Z 27021KT 16/M04 A2978 RMK A01 T01591037  RH  026%=      5-min Rain = 0
KCO2 190204Z 28018G23KT 16/M04 A2979 RMK A01 T01631041  RH  024%=      5-min Rain = 0
KCO2 190205Z 27013KT 16/M04 A2979 RMK A01 T01631042  RH  024%=      5-min Rain = 0
KCO2 190206Z 27016KT 16/M04 A298 RMK A01 T01631041  RH  024%=      5-min Rain = 0
KCO2 190207Z 26014G19KT 16/M04 A298 RMK A01 T01621041  RH  024%=      5-min Rain = 0
KCO2 190208Z 26016KT 16/M04 A298 RMK A01 T01621039  RH  025%=      5-min Rain = 0
KCO2 190209Z 26014KT 16/M04 A298 RMK A01 T01611035  RH  026%=      5-min Rain = 0
KCO2 190210Z 26016KT 16/M03 A2981 RMK A01 T01611032  RH  026%=      5-min Rain = 0
KCO2 190211Z 26015KT 16/M03 A2981 RMK A01 T01601034  RH  026%=      5-min Rain = 0
KCO2 190212Z 26015KT 16/M04 A2981 RMK A01 T01601035  RH  026%=      5-min Rain = 0
KCO2 190213Z 26014G19KT 16/M04 A2981 RMK A01 T01601035  RH  026%=      5-min Rain = 0
KCO2 190214Z 26013KT 16/M04 A2981 RMK A01 T01591035  RH  026%=      5-min Rain = 0
KCO2 190215Z 26014KT 16/M04 A2981 RMK A01 T01591036  RH  026%=      5-min Rain = 0
KCO2 190216Z 25014KT 16/M04 A298 RMK A01 T01581035  RH  026%=      5-min Rain = 0
KCO2 190217Z 25016G21KT 16/M03 A298 RMK A01 T01581034  RH  027%=      5-min Rain = 0
KCO2 190218Z 25015KT 16/M04 A298 RMK A01 T01581035  RH  026%=      5-min Rain = 0
KCO2 190219Z 26016KT 16/M04 A2979 RMK A01 T01581037  RH  026%=      5-min Rain = 0
KCO2 190220Z 26014KT 16/M04 A2979 RMK A01 T01581037  RH  026%=      5-min Rain = 0
KCO2 190221Z 26014KT 16/M04 A2979 RMK A01 T01581037  RH  026%=      5-min Rain = 0
KCO2 190222Z 26016KT 16/M04 A2978 RMK A01 T01571038  RH  026%=      5-min Rain = 0
KCO2 190223Z 25014G20KT 16/M04 A2978 RMK A01 T01571039  RH  026%=      5-min Rain = 0
KCO2 190224Z 27013KT 16/M04 A2979 RMK A01 T01571039  RH  026%=      5-min Rain = 0
KCO2 190225Z 26016KT 16/M04 A2979 RMK A01 T01561039  RH  026%=      5-min Rain = 0
KCO2 190226Z 26013KT 16/M04 A2979 RMK A01 T01561039  RH  026%=      5-min Rain = 0
KCO2 190227Z 25015KT 16/M04 A2979 RMK A01 T01551039  RH  026%=      5-min Rain = 0
KCO2 190228Z 25015KT 15/M04 A2979 RMK A01 T01541040  RH  026%=      5-min Rain = 0
KCO2 190229Z 26015KT 15/M04 A2979 RMK A01 T01541040  RH  026%=      5-min Rain = 0
KCO2 190230Z 26016KT 15/M04 A2979 RMK A01 T01541040  RH  026%=      5-min Rain = 0
KCO2 190231Z 27016KT 15/M04 A2979 RMK A01 T01541040  RH  026%=      5-min Rain = 0
KCO2 190232Z 26017KT 15/M04 A2979 RMK A01 T01531040  RH  026%=      5-min Rain = 0
KCO2 190233Z 26019KT 15/M04 A2979 RMK A01 T01531040  RH  026%=      5-min Rain = 0
KCO2 190234Z 26015G21KT 15/M04 A2979 RMK A01 T01531041  RH  026%=      5-min Rain = 0
KCO2 190235Z 26021G28KT 15/M04 A2979 RMK A01 T01531040  RH  026%=      5-min Rain = 0
KCO2 190236Z 26018KT 15/M04 A298 RMK A01 T01541041  RH  026%=      5-min Rain = 0
KCO2 190237Z 26017G22KT 15/M04 A298 RMK A01 T01541041  RH  026%=      5-min Rain = 0
KCO2 190238Z 26018KT 15/M04 A298 RMK A01 T01531040  RH  026%=      5-min Rain = 0
KCO2 190239Z 26022KT 15/M04 A298 RMK A01 T01531041  RH  026%=      5-min Rain = 0
KCO2 190240Z 27020KT 15/M04 A298 RMK A01 T01531041  RH  026%=      5-min Rain = 0
KCO2 190241Z 27024KT 15/M04 A298 RMK A01 T01531041  RH  026%=      5-min Rain = 0
KCO2 190242Z 27019G24KT 15/M04 A2981 RMK A01 T01541041  RH  026%=      5-min Rain = 0
KCO2 190243Z 27022G29KT 15/M04 A2981 RMK A01 T01541041  RH  026%=      5-min Rain = 0
KCO2 190244Z 28018KT 15/M04 A2981 RMK A01 T01531041  RH  026%=      5-min Rain = 0
KCO2 190245Z 27022G30KT 15/M04 A2981 RMK A01 T01531041  RH  026%=      5-min Rain = 0
KCO2 190246Z 28023G29KT 15/M04 A2981 RMK A01 T01531042  RH  026%=      5-min Rain = 0
KCO2 190247Z 28023G29KT 15/M04 A2981 RMK A01 T01541041  RH  026%=      5-min Rain = 0
KCO2 190248Z 28022G28KT 15/M04 A2981 RMK A01 T01541041  RH  026%=      5-min Rain = 0
KCO2 190249Z 28025KT 15/M04 A2981 RMK A01 T01541039  RH  026%=      5-min Rain = 0
KCO2 190250Z 29021G26KT 15/M04 A2982 RMK A01 T01541038  RH  026%=      5-min Rain = 0
KCO2 190251Z 29019G26KT 15/M04 A2982 RMK A01 T01531036  RH  027%=      5-min Rain = 0
KCO2 190252Z 30023G30KT 15/M03 A2982 RMK A01 T01521032  RH  028%=      5-min Rain = 0
KCO2 190253Z 30027G32KT 15/M03 A2983 RMK A01 T01511025  RH  030%=      5-min Rain = 0
KCO2 190254Z 31029G38KT 15/M01 A2983 RMK A01 T01491014  RH  032%=      5-min Rain = 0
KCO2 190255Z 31036G42KT 15/M01 A2983 RMK A01 T01471005  RH  035%=      5-min Rain = 0
KCO2 190256Z 31031G37KT 15/00 A2983 RMK A01 T01450000  RH  037%=      5-min Rain = 0
KCO2 190257Z 30032G38KT 14/00 A2983 RMK A01 T01420002  RH  038%=      5-min Rain = 0
KCO2 190258Z 31026G32KT 14/00 A2983 RMK A01 T01400003  RH  039%=      5-min Rain = 0
KCO2 190259Z 32024G32KT 14/00 A2983 RMK A01 T01390003  RH  040%=      5-min Rain = 0
KCO2 190300Z 31032G39KT 14/00 A2983 RMK A01 T01370004  RH  040%=      5-min Rain = 0
KCO2 190301Z 31025KT 14/01 A2983 RMK A01 T01350005  RH  041%=      5-min Rain = 0
KCO2 190302Z 31027G32KT 13/01 A2983 RMK A01 T01340005  RH  041%=      5-min Rain = 0
KCO2 190303Z 31024G32KT 13/01 A2983 RMK A01 T01320005  RH  042%=      5-min Rain = 0
KCO2 190304Z 31024KT 13/01 A2983 RMK A01 T01310005  RH  042%=      5-min Rain = 0
KCO2 190305Z 31025G32KT 13/01 A2983 RMK A01 T01310006  RH  042%=      5-min Rain = 0
KCO2 190306Z 32024G34KT 13/01 A2984 RMK A01 T01300005  RH  043%=      5-min Rain = 0
KCO2 190307Z 32027G37KT 13/01 A2983 RMK A01 T01280006  RH  043%=      5-min Rain = 0
KCO2 190308Z 32033G38KT 13/01 A2983 RMK A01 T01260006  RH  044%=      5-min Rain = 0
KCO2 190309Z 32029G39KT 12/01 A2983 RMK A01 T01240006  RH  044%=      5-min Rain = 0
KCO2 190310Z 32029G38KT 12/01 A2983 RMK A01 T01230007  RH  045%=      5-min Rain = 0
KCO2 190311Z 32029G35KT 12/01 A2983 RMK A01 T01210006  RH  045%=      5-min Rain = 0
KCO2 190312Z 32031G36KT 12/01 A2983 RMK A01 T01200007  RH  046%=      5-min Rain = 0
KCO2 190313Z 32034G39KT 12/01 A2983 RMK A01 T01190007  RH  046%=      5-min Rain = 0
KCO2 190314Z 32025G34KT 12/01 A2983 RMK A01 T01190008  RH  046%=      5-min Rain = 0
KCO2 190315Z 32027G32KT 12/01 A2983 RMK A01 T01170007  RH  047%=      5-min Rain = 0
KCO2 190316Z 32026G33KT 12/01 A2983 RMK A01 T01160007  RH  047%=      5-min Rain = 0
KCO2 190317Z 32023G30KT 12/01 A2984 RMK A01 T01160008  RH  047%=      5-min Rain = 0
KCO2 190318Z 32026G32KT 12/01 A2984 RMK A01 T01150008  RH  048%=      5-min Rain = 0
KCO2 190319Z 32030G36KT 11/01 A2984 RMK A01 T01140008  RH  048%=      5-min Rain = 0
KCO2 190320Z 32022G29KT 11/01 A2984 RMK A01 T01140009  RH  048%=      5-min Rain = 0
KCO2 190321Z 32023G30KT 11/01 A2984 RMK A01 T01140008  RH  048%=      5-min Rain = 0
KCO2 190322Z 32022KT 11/01 A2984 RMK A01 T01130008  RH  049%=      5-min Rain = 0
KCO2 190323Z 32019G26KT 11/01 A2984 RMK A01 T01120008  RH  049%=      5-min Rain = 0
KCO2 190324Z 32022G27KT 11/01 A2984 RMK A01 T01110008  RH  049%=      5-min Rain = 0
KCO2 190325Z 32021KT 11/01 A2984 RMK A01 T01110008  RH  049%=      5-min Rain = 0
KCO2 190326Z 32017G22KT 11/01 A2984 RMK A01 T01100008  RH  050%=      5-min Rain = 0
KCO2 190327Z 32017KT 11/01 A2984 RMK A01 T01090008  RH  050%=      5-min Rain = 0
KCO2 190328Z 32017KT 11/01 A2984 RMK A01 T01080008  RH  050%=      5-min Rain = 0
KCO2 190329Z 32017G22KT 11/01 A2985 RMK A01 T01080008  RH  050%=      5-min Rain = 0
KCO2 190330Z 33017G22KT 11/01 A2985 RMK A01 T01070008  RH  050%=      5-min Rain = 0
KCO2 190331Z 33017KT 11/01 A2985 RMK A01 T01070008  RH  050%=      5-min Rain = 0
KCO2 190332Z 33018KT 11/01 A2985 RMK A01 T01060008  RH  050%=      5-min Rain = 0
KCO2 190333Z 32015KT 11/01 A2985 RMK A01 T01070008  RH  050%=      5-min Rain = 0
KCO2 190334Z 33018KT 11/01 A2986 RMK A01 T01060008  RH  051%=      5-min Rain = 0
KCO2 190335Z 33020KT 11/01 A2986 RMK A01 T01060007  RH  051%=      5-min Rain = 0
KCO2 190336Z 33020KT 11/01 A2986 RMK A01 T01050007  RH  051%=      5-min Rain = 0
KCO2 190337Z 32021KT 11/01 A2986 RMK A01 T01050007  RH  051%=      5-min Rain = 0
KCO2 190338Z 32020G27KT 10/01 A2986 RMK A01 T01040007  RH  051%=      5-min Rain = 0
KCO2 190339Z 32024G30KT 10/01 A2986 RMK A01 T01040007  RH  051%=      5-min Rain = 0
KCO2 190340Z 32025KT 10/01 A2987 RMK A01 T01030007  RH  051%=      5-min Rain = 0
KCO2 190341Z 32024KT 10/01 A2987 RMK A01 T01030008  RH  052%=      5-min Rain = 0
KCO2 190342Z 32023G28KT 10/01 A2987 RMK A01 T01020007  RH  052%=      5-min Rain = 0
KCO2 190343Z 32020KT 10/01 A2987 RMK A01 T01010007  RH  052%=      5-min Rain = 0
KCO2 190344Z 32021G27KT 10/01 A2987 RMK A01 T01000007  RH  052%=      5-min Rain = 0
KCO2 190345Z 32024G30KT 10/01 A2987 RMK A01 T00990007  RH  053%=      5-min Rain = 0
KCO2 190346Z 32024KT 10/01 A2988 RMK A01 T00990007  RH  053%=      5-min Rain = 0
KCO2 190347Z 32023G28KT 10/01 A2988 RMK A01 T00990007  RH  053%=      5-min Rain = 0
KCO2 190348Z 32022KT 10/01 A2988 RMK A01 T00980007  RH  053%=      5-min Rain = 0
KCO2 190349Z 32022G29KT 10/01 A2988 RMK A01 T00970007  RH  053%=      5-min Rain = 0
KCO2 190350Z 32019KT 10/01 A2988 RMK A01 T00960007  RH  054%=      5-min Rain = 0
KCO2 190351Z 32021KT 10/01 A2988 RMK A01 T00960007  RH  054%=      5-min Rain = 0
KCO2 190352Z 32022G27KT 10/01 A2988 RMK A01 T00950007  RH  054%=      5-min Rain = 0
KCO2 190353Z 32019G25KT 09/01 A2989 RMK A01 T00940007  RH  054%=      5-min Rain = 0
KCO2 190354Z 33021G27KT 09/01 A2989 RMK A01 T00940007  RH  054%=      5-min Rain = 0
KCO2 190355Z 33019G24KT 09/01 A2989 RMK A01 T00940007  RH  055%=      5-min Rain = 0
KCO2 190356Z 33014G20KT 09/01 A2989 RMK A01 T00930007  RH  055%=      5-min Rain = 0
KCO2 190357Z 33017G22KT 09/01 A2989 RMK A01 T00920007  RH  055%=      5-min Rain = 0
KCO2 190358Z 33021G27KT 09/01 A2989 RMK A01 T00910006  RH  055%=      5-min Rain = 0
KCO2 190359Z 34025G31KT 09/01 A2989 RMK A01 T00900005  RH  055%=      5-min Rain = 0
KCO2 190400Z 34023G29KT 09/01 A299 RMK A01 T00900005  RH  055%=      5-min Rain = 0
KCO2 190401Z 33024G30KT 09/00 A299 RMK A01 T00890004  RH  055%=      5-min Rain = 0
KCO2 190402Z 33024G30KT 09/00 A299 RMK A01 T00880004  RH  055%=      5-min Rain = 0
KCO2 190403Z 33024KT 09/00 A299 RMK A01 T00880004  RH  056%=      5-min Rain = 0
KCO2 190404Z 34021KT 09/00 A2991 RMK A01 T00870004  RH  056%=      5-min Rain = 0
KCO2 190405Z 33023G29KT 09/00 A2991 RMK A01 T00870004  RH  056%=      5-min Rain = 0
KCO2 190406Z 33018G24KT 09/00 A2991 RMK A01 T00860003  RH  056%=      5-min Rain = 0
KCO2 190407Z 33015KT 09/00 A2991 RMK A01 T00860003  RH  056%=      5-min Rain = 0
KCO2 190408Z 33019G24KT 08/00 A2991 RMK A01 T00840003  RH  057%=      5-min Rain = 0
KCO2 190409Z 33021G26KT 08/00 A2991 RMK A01 T00840003  RH  057%=      5-min Rain = 0
KCO2 190410Z 33020G25KT 08/00 A2992 RMK A01 T00840003  RH  057%=      5-min Rain = 0
KCO2 190411Z 33019G25KT 08/00 A2992 RMK A01 T00830003  RH  057%=      5-min Rain = 0
KCO2 190412Z 33019KT 08/00 A2992 RMK A01 T00830003  RH  057%=      5-min Rain = 0
KCO2 190413Z 33019KT 08/00 A2992 RMK A01 T00830003  RH  057%=      5-min Rain = 0
KCO2 190414Z 33016KT 08/00 A2992 RMK A01 T00820002  RH  057%=      5-min Rain = 0
KCO2 190415Z 33020G27KT 08/00 A2992 RMK A01 T00810002  RH  057%=      5-min Rain = 0
KCO2 190416Z 33020G26KT 08/00 A2993 RMK A01 T00810002  RH  057%=      5-min Rain = 0
KCO2 190417Z 33021KT 08/00 A2993 RMK A01 T00810002  RH  057%=      5-min Rain = 0
KCO2 190418Z 33017G22KT 08/00 A2993 RMK A01 T00810002  RH  057%=      5-min Rain = 0
KCO2 190419Z 33018G24KT 08/00 A2993 RMK A01 T00810002  RH  058%=      5-min Rain = 0
KCO2 190420Z 33015G20KT 08/00 A2993 RMK A01 T00800002  RH  058%=      5-min Rain = 0
KCO2 190421Z 34018KT 08/00 A2993 RMK A01 T00800002  RH  058%=      5-min Rain = 0
KCO2 190422Z 33017KT 08/00 A2993 RMK A01 T00800002  RH  058%=      5-min Rain = 0
KCO2 190423Z 33018KT 08/00 A2993 RMK A01 T00800002  RH  058%=      5-min Rain = 0
KCO2 190424Z 33017G22KT 08/00 A2993 RMK A01 T00800002  RH  058%=      5-min Rain = 0
KCO2 190425Z 33016KT 08/00 A2993 RMK A01 T00800002  RH  058%=      5-min Rain = 0
KCO2 190426Z 33018KT 08/00 A2993 RMK A01 T00800002  RH  058%=      5-min Rain = 0
KCO2 190427Z 33016KT 08/00 A2994 RMK A01 T00810002  RH  058%=      5-min Rain = 0
KCO2 190428Z 33018KT 08/00 A2994 RMK A01 T00810002  RH  058%=      5-min Rain = 0
KCO2 190429Z 34017KT 08/00 A2994 RMK A01 T00810002  RH  058%=      5-min Rain = 0
KCO2 190430Z 33018KT 08/00 A2994 RMK A01 T00810002  RH  058%=      5-min Rain = 0
KCO2 190431Z 34017G23KT 08/00 A2994 RMK A01 T00810003  RH  058%=      5-min Rain = 0
KCO2 190432Z 33018KT 08/00 A2994 RMK A01 T00810003  RH  058%=      5-min Rain = 0
KCO2 190433Z 33015G20KT 08/00 A2994 RMK A01 T00820003  RH  057%=      5-min Rain = 0
KCO2 190434Z 32016KT 08/00 A2994 RMK A01 T00820003  RH  057%=      5-min Rain = 0
KCO2 190435Z 33016KT 08/00 A2994 RMK A01 T00820003  RH  057%=      5-min Rain = 0
KCO2 190436Z 33015G20KT 08/00 A2994 RMK A01 T00820003  RH  058%=      5-min Rain = 0
KCO2 190437Z 33015KT 08/00 A2994 RMK A01 T00820003  RH  058%=      5-min Rain = 0
KCO2 190438Z 33017KT 08/00 A2994 RMK A01 T00820003  RH  058%=      5-min Rain = 0
KCO2 190439Z 33020G26KT 08/00 A2994 RMK A01 T00820003  RH  057%=      5-min Rain = 0
KCO2 190440Z 33020KT 08/00 A2994 RMK A01 T00820003  RH  057%=      5-min Rain = 0
KCO2 190441Z 33021KT 08/00 A2994 RMK A01 T00820003  RH  057%=      5-min Rain = 0
KCO2 190442Z 33022KT 08/00 A2994 RMK A01 T00830003  RH  057%=      5-min Rain = 0
KCO2 190443Z 32023G29KT 08/00 A2994 RMK A01 T00820003  RH  057%=      5-min Rain = 0
KCO2 190444Z 33023G29KT 08/00 A2995 RMK A01 T00820002  RH  057%=      5-min Rain = 0
KCO2 190445Z 33015G20KT 08/00 A2995 RMK A01 T00810002  RH  057%=      5-min Rain = 0
KCO2 190446Z 33016G26KT 08/00 A2995 RMK A01 T00810002  RH  058%=      5-min Rain = 0
KCO2 190447Z 33022G27KT 08/00 A2995 RMK A01 T00800002  RH  058%=      5-min Rain = 0
KCO2 190448Z 33019G24KT 08/00 A2995 RMK A01 T00800002  RH  058%=      5-min Rain = 0
KCO2 190449Z 34020KT 08/00 A2995 RMK A01 T00800002  RH  058%=      5-min Rain = 0
KCO2 190450Z 33021G28KT 08/00 A2995 RMK A01 T00800002  RH  058%=      5-min Rain = 0
KCO2 190451Z 34020G26KT 08/00 A2995 RMK A01 T00790001  RH  058%=      5-min Rain = 0
KCO2 190452Z 34022G27KT 08/00 A2996 RMK A01 T00780001  RH  058%=      5-min Rain = 0
KCO2 190453Z 34019G24KT 08/00 A2996 RMK A01 T00770001  RH  058%=      5-min Rain = 0
KCO2 190454Z 34022G27KT 08/00 A2996 RMK A01 T007600-0  RH  059%=      5-min Rain = 0
KCO2 190455Z 34020KT 08/00 A2996 RMK A01 T007500-0  RH  059%=      5-min Rain = 0
KCO2 190456Z 34022KT 07/00 A2996 RMK A01 T007400-0  RH  059%=      5-min Rain = 0
KCO2 190457Z 34019G24KT 07/00 A2996 RMK A01 T007400-0  RH  059%=      5-min Rain = 0
KCO2 190458Z 33020G26KT 07/00 A2996 RMK A01 T007400-0  RH  059%=      5-min Rain = 0
KCO2 190459Z 34022G29KT 07/M00 A2996 RMK A01 T00731001  RH  059%=      5-min Rain = 0
KCO2 190500Z 34021G26KT 07/M00 A2997 RMK A01 T00731001  RH  059%=      5-min Rain = 0
KCO2 190501Z 33025KT 07/M00 A2997 RMK A01 T00731001  RH  059%=      5-min Rain = 0
KCO2 190502Z 33021G26KT 07/M00 A2997 RMK A01 T00731002  RH  059%=      5-min Rain = 0
KCO2 190503Z 33025G30KT 07/M00 A2997 RMK A01 T00731002  RH  059%=      5-min Rain = 0
KCO2 190504Z 33022G28KT 07/M00 A2997 RMK A01 T00721004  RH  059%=      5-min Rain = 0
KCO2 190505Z 34025G32KT 07/M01 A2997 RMK A01 T00721006  RH  058%=      5-min Rain = 0
KCO2 190506Z 33028G37KT 07/M01 A2997 RMK A01 T00701008  RH  057%=      5-min Rain = 0
KCO2 190507Z 33029KT 07/M01 A2998 RMK A01 T00701008  RH  058%=      5-min Rain = 0
KCO2 190508Z 33024G30KT 07/M01 A2998 RMK A01 T00691009  RH  058%=      5-min Rain = 0
KCO2 190509Z 32024G29KT 07/M01 A2998 RMK A01 T00681009  RH  058%=      5-min Rain = 0
KCO2 190510Z 32020G25KT 07/M01 A2998 RMK A01 T00671009  RH  058%=      5-min Rain = 0
KCO2 190511Z 33024KT 07/M01 A2998 RMK A01 T00671009  RH  058%=      5-min Rain = 0
KCO2 190512Z 32019G25KT 07/M01 A2998 RMK A01 T00661009  RH  059%=      5-min Rain = 0
KCO2 190513Z 32018G25KT 07/M01 A2999 RMK A01 T00661009  RH  059%=      5-min Rain = 0
KCO2 190514Z 32021KT 07/M01 A2999 RMK A01 T00651009  RH  059%=      5-min Rain = 0
KCO2 190515Z 32021G27KT 07/M01 A2999 RMK A01 T00651009  RH  059%=      5-min Rain = 0
KCO2 190516Z 31021G27KT 07/M01 A2999 RMK A01 T00651009  RH  059%=      5-min Rain = 0
KCO2 190517Z 32019G25KT 07/M01 A2999 RMK A01 T00651009  RH  059%=      5-min Rain = 0
KCO2 190518Z 32020G27KT 07/M01 A2999 RMK A01 T00651009  RH  059%=      5-min Rain = 0
KCO2 190519Z 32020KT 07/M01 A2999 RMK A01 T00651009  RH  059%=      5-min Rain = 0
KCO2 190520Z 32019KT 07/M01 A2999 RMK A01 T00651008  RH  059%=      5-min Rain = 0
KCO2 190521Z 32021KT 07/M01 A2999 RMK A01 T00651008  RH  060%=      5-min Rain = 0
KCO2 190522Z 32022G27KT 07/M01 A30 RMK A01 T00651008  RH  060%=      5-min Rain = 0
KCO2 190523Z 32022G30KT 07/M01 A30 RMK A01 T00651008  RH  060%=      5-min Rain = 0
KCO2 190524Z 33024KT 07/M01 A30 RMK A01 T00651008  RH  059%=      5-min Rain = 0
KCO2 190525Z 33020KT 07/M01 A30 RMK A01 T00651008  RH  059%=      5-min Rain = 0
KCO2 190526Z 34017G27KT 07/M01 A30 RMK A01 T00651009  RH  059%=      5-min Rain = 0
KCO2 190527Z 34024KT 07/M01 A30 RMK A01 T00651010  RH  059%=      5-min Rain = 0
KCO2 190528Z 33023G28KT 07/M01 A30 RMK A01 T00651010  RH  059%=      5-min Rain = 0
KCO2 190529Z 33021G26KT 06/M01 A30 RMK A01 T00641011  RH  058%=      5-min Rain = 0
KCO2 190530Z 33022G27KT 06/M01 A30 RMK A01 T00641012  RH  058%=      5-min Rain = 0
KCO2 190531Z 33022G29KT 06/M01 A30 RMK A01 T00641014  RH  057%=      5-min Rain = 0
KCO2 190532Z 33024G31KT 06/M02 A30 RMK A01 T00641015  RH  057%=      5-min Rain = 0
KCO2 190533Z 32023G29KT 06/M02 A30 RMK A01 T00631016  RH  057%=      5-min Rain = 0
KCO2 190534Z 33023G28KT 06/M02 A30 RMK A01 T00631016  RH  057%=      5-min Rain = 0
KCO2 190535Z 33022G31KT 06/M02 A30 RMK A01 T00631016  RH  057%=      5-min Rain = 0
KCO2 190536Z 33023G28KT 06/M02 A30 RMK A01 T00631017  RH  057%=      5-min Rain = 0
KCO2 190537Z 33026G32KT 06/M02 A3001 RMK A01 T00621018  RH  056%=      5-min Rain = 0
KCO2 190538Z 32024G31KT 06/M02 A3001 RMK A01 T00631018  RH  056%=      5-min Rain = 0
KCO2 190539Z 33028KT 06/M02 A3001 RMK A01 T00631019  RH  056%=      5-min Rain = 0
KCO2 190540Z 32023KT 06/M02 A3001 RMK A01 T00621019  RH  056%=      5-min Rain = 0
KCO2 190541Z 32020G27KT 06/M02 A3001 RMK A01 T00631019  RH  056%=      5-min Rain = 0
KCO2 190542Z 32019KT 06/M02 A3001 RMK A01 T00621020  RH  056%=      5-min Rain = 0
KCO2 190543Z 32021G31KT 06/M02 A3001 RMK A01 T00621021  RH  055%=      5-min Rain = 0
KCO2 190544Z 33027G33KT 06/M02 A3001 RMK A01 T00621021  RH  055%=      5-min Rain = 0
KCO2 190545Z 33024G29KT 06/M02 A3001 RMK A01 T00611022  RH  055%=      5-min Rain = 0
KCO2 190546Z 33027G32KT 06/M02 A3001 RMK A01 T00611022  RH  055%=      5-min Rain = 0
KCO2 190547Z 33027G34KT 06/M02 A3001 RMK A01 T00611023  RH  055%=      5-min Rain = 0
KCO2 190548Z 33029G36KT 06/M02 A3001 RMK A01 T00601024  RH  055%=      5-min Rain = 0
KCO2 190549Z 33029KT 06/M02 A3001 RMK A01 T00601024  RH  055%=      5-min Rain = 0
KCO2 190550Z 33027KT 06/M02 A3001 RMK A01 T00601024  RH  055%=      5-min Rain = 0
KCO2 190551Z 33022KT 06/M02 A3001 RMK A01 T00601024  RH  055%=      5-min Rain = 0
KCO2 190552Z 33021G28KT 06/M02 A3002 RMK A01 T00601023  RH  055%=      5-min Rain = 0
KCO2 190553Z 33021G26KT 06/M02 A3002 RMK A01 T00601023  RH  055%=      5-min Rain = 0
KCO2 190554Z 34024KT 06/M02 A3002 RMK A01 T00591023  RH  055%=      5-min Rain = 0
KCO2 190555Z 33019KT 06/M02 A3002 RMK A01 T00591023  RH  055%=      5-min Rain = 0
KCO2 190556Z 33021G26KT 06/M02 A3002 RMK A01 T00591023  RH  056%=      5-min Rain = 0
KCO2 190557Z 33020G26KT 06/M02 A3002 RMK A01 T00591023  RH  056%=      5-min Rain = 0
KCO2 190558Z 34019G25KT 06/M02 A3002 RMK A01 T00591023  RH  056%=      5-min Rain = 0
KCO2 190559Z 33021G27KT 06/M02 A3002 RMK A01 T00591023  RH  056%=      5-min Rain = 0

Page generated in 0.122 seconds.